Wetterdaten: Sonntag, 18.08.2019
Datum Zeit Temp. Aussen Temp. o. S. +5cm Feuchte Auss Luftdruck Regen Sonnenschein Regendauer Solar Windben Empfang
18.08.2019 00:00 19,9 C 18,3 C 17,8 C 88 % 1013,3 hPa 0,0 l/m 0 min 0 min 0 W/m 12,9 km/h (3 Bft) 97,87 %
18.08.2019 00:02 19,8 C 18,3 C 17,8 C 88 % 1013,3 hPa 0,0 l/m 0 min 0 min 0 W/m 12,9 km/h (3 Bft) 97,50 %
18.08.2019 00:04 19,8 C 18,3 C 17,8 C 88 % 1013,3 hPa 0,0 l/m 0 min 2 min 0 W/m 12,9 km/h (3 Bft) 97,87 %
18.08.2019 00:08 19,8 C 18,3 C 17,2 C 88 % 1013,3 hPa 0,0 l/m 0 min 4 min 0 W/m 9,7 km/h (2 Bft) 97,85 %
18.08.2019 00:10 19,8 C 17,8 C 17,2 C 88 % 1013,3 hPa 0,0 l/m 0 min 2 min 0 W/m 6,4 km/h (2 Bft) 95,74 %
18.08.2019 00:12 19,8 C 17,8 C 17,2 C 88 % 1013,3 hPa 0,0 l/m 0 min 2 min 0 W/m 12,9 km/h (3 Bft) 97,87 %
18.08.2019 00:14 19,8 C 17,8 C 17,2 C 88 % 1013,3 hPa 0,0 l/m 0 min 2 min 0 W/m 6,4 km/h (2 Bft) 97,87 %
18.08.2019 00:16 19,8 C 17,8 C 17,2 C 88 % 1013,3 hPa 0,0 l/m 0 min 2 min 0 W/m 9,7 km/h (2 Bft) 95,74 %
18.08.2019 00:18 19,8 C 17,8 C 17,2 C 88 % 1013,3 hPa 0,0 l/m 0 min 2 min 0 W/m 12,9 km/h (3 Bft) 97,83 %
18.08.2019 00:20 19,7 C 17,8 C 17,2 C 88 % 1013,3 hPa 0,0 l/m 0 min 2 min 0 W/m 16,1 km/h (3 Bft) 95,74 %
18.08.2019 00:22 19,7 C 17,8 C 17,2 C 89 % 1013,4 hPa 0,0 l/m 0 min 0 min 0 W/m 6,4 km/h (2 Bft) 97,87 %
18.08.2019 00:24 19,7 C 17,8 C 17,2 C 89 % 1013,4 hPa 0,0 l/m 0 min 0 min 0 W/m 9,7 km/h (2 Bft) 97,87 %
18.08.2019 00:26 19,7 C 17,8 C 17,2 C 89 % 1013,4 hPa 0,0 l/m 0 min 0 min 0 W/m 6,4 km/h (2 Bft) 100,00 %
18.08.2019 00:28 19,7 C 17,8 C 17,2 C 89 % 1013,4 hPa 0,0 l/m 0 min 0 min 0 W/m 9,7 km/h (2 Bft) 100,00 %
18.08.2019 00:30 19,6 C 17,8 C 17,2 C 89 % 1013,4 hPa 0,0 l/m 0 min 2 min 0 W/m 9,7 km/h (2 Bft) 95,65 %
18.08.2019 00:32 19,6 C 17,8 C 17,2 C 89 % 1013,4 hPa 0,0 l/m 0 min 2 min 0 W/m 9,7 km/h (2 Bft) 100,00 %
18.08.2019 00:34 19,6 C 17,8 C 17,2 C 89 % 1013,4 hPa 0,0 l/m 0 min 2 min 0 W/m 6,4 km/h (2 Bft) 100,00 %
18.08.2019 00:36 19,6 C 17,2 C 17,2 C 89 % 1013,4 hPa 0,0 l/m 0 min 2 min 0 W/m 6,4 km/h (2 Bft) 100,00 %
18.08.2019 00:38 19,6 C 17,2 C 17,2 C 90 % 1013,5 hPa 0,0 l/m 0 min 2 min 0 W/m 9,7 km/h (2 Bft) 95,74 %
18.08.2019 00:40 19,6 C 17,2 C 17,2 C 90 % 1013,5 hPa 0,0 l/m 0 min 2 min 0 W/m 6,4 km/h (2 Bft) 95,74 %
18.08.2019 00:42 19,5 C 17,2 C 17,2 C 90 % 1013,4 hPa 0,0 l/m 0 min 2 min 0 W/m 6,4 km/h (2 Bft) 93,48 %
18.08.2019 00:44 19,5 C 17,2 C 16,7 C 90 % 1013,4 hPa 0,0 l/m 0 min 2 min 0 W/m 6,4 km/h (2 Bft) 97,87 %
18.08.2019 00:46 19,5 C 17,2 C 16,7 C 90 % 1013,5 hPa 0,0 l/m 0 min 2 min 0 W/m 12,9 km/h (3 Bft) 97,87 %
18.08.2019 00:48 19,5 C 17,2 C 16,7 C 90 % 1013,5 hPa 0,0 l/m 0 min 2 min 0 W/m 9,7 km/h (2 Bft) 95,74 %
18.08.2019 00:50 19,4 C 17,2 C 16,7 C 90 % 1013,4 hPa 0,0 l/m 0 min 2 min 0 W/m 6,4 km/h (2 Bft) 95,74 %
18.08.2019 00:52 19,4 C 17,2 C 16,7 C 90 % 1013,4 hPa 0,0 l/m 0 min 2 min 0 W/m 6,4 km/h (2 Bft) 95,74 %
18.08.2019 00:54 19,4 C 17,2 C 16,7 C 90 % 1013,4 hPa 0,0 l/m 0 min 2 min 0 W/m 9,7 km/h (2 Bft) 95,65 %
18.08.2019 00:56 19,4 C 17,2 C 16,7 C 90 % 1013,4 hPa 0,0 l/m 0 min 2 min 0 W/m 9,7 km/h (2 Bft) 93,62 %
18.08.2019 00:58 19,4 C 17,2 C 16,7 C 90 % 1013,5 hPa 0,0 l/m 0 min 2 min 0 W/m 9,7 km/h (2 Bft) 93,62 %
18.08.2019 01:00 19,4 C 17,2 C 16,7 C 90 % 1013,5 hPa 0,0 l/m 0 min 2 min 0 W/m 9,7 km/h (2 Bft) 95,74 %
18.08.2019 01:02 19,4 C 17,2 C 16,7 C 91 % 1013,5 hPa 0,0 l/m 0 min 2 min 0 W/m 6,4 km/h (2 Bft) 93,62 %
18.08.2019 01:04 19,3 C 17,2 C 16,7 C 91 % 1013,5 hPa 0,0 l/m 0 min 2 min 0 W/m 9,7 km/h (2 Bft) 95,74 %
18.08.2019 01:06 19,3 C 17,2 C 16,7 C 91 % 1013,4 hPa 0,0 l/m 0 min 0 min 0 W/m 6,4 km/h (2 Bft) 93,48 %
18.08.2019 01:08 19,3 C 17,2 C 16,7 C 91 % 1013,6 hPa 0,0 l/m 0 min 0 min 0 W/m 6,4 km/h (2 Bft) 93,62 %
18.08.2019 01:10 19,3 C 17,2 C 16,7 C 91 % 1013,5 hPa 0,0 l/m 0 min 0 min 0 W/m 6,4 km/h (2 Bft) 95,74 %
18.08.2019 01:12 19,3 C 17,2 C 16,7 C 91 % 1013,5 hPa 0,0 l/m 0 min 0 min 0 W/m 6,4 km/h (2 Bft) 95,74 %
18.08.2019 01:14 19,2 C 17,2 C 16,7 C 91 % 1013,5 hPa 0,0 l/m 0 min 0 min 0 W/m 9,7 km/h (2 Bft) 95,74 %
18.08.2019 01:16 19,2 C 17,2 C 16,7 C 91 % 1013,6 hPa 0,0 l/m 0 min 0 min 0 W/m 6,4 km/h (2 Bft) 95,74 %
18.08.2019 01:18 19,2 C 17,2 C 16,7 C 91 % 1013,8 hPa 0,0 l/m 0 min 0 min 0 W/m 6,4 km/h (2 Bft) 95,65 %
18.08.2019 01:20 19,2 C 17,2 C 16,7 C 91 % 1013,7 hPa 0,0 l/m 0 min 0 min 0 W/m 6,4 km/h (2 Bft) 95,74 %
18.08.2019 01:22 19,2 C 17,2 C 16,7 C 91 % 1013,6 hPa 0,0 l/m 0 min 2 min 0 W/m 6,4 km/h (2 Bft) 95,74 %
18.08.2019 01:24 19,2 C 17,2 C 16,7 C 91 % 1013,6 hPa 0,0 l/m 0 min 0 min 0 W/m 6,4 km/h (2 Bft) 95,74 %
18.08.2019 01:26 19,2 C 17,2 C 16,7 C 91 % 1013,6 hPa 0,0 l/m 0 min 0 min 0 W/m 3,2 km/h (1 Bft) 93,62 %
18.08.2019 01:28 19,1 C 17,2 C 16,7 C 91 % 1013,6 hPa 0,0 l/m 0 min 0 min 0 W/m 3,2 km/h (1 Bft) 93,62 %
18.08.2019 01:30 19,1 C 17,2 C 17,2 C 91 % 1013,6 hPa 0,0 l/m 0 min 0 min 0 W/m 9,7 km/h (2 Bft) 95,65 %
18.08.2019 01:32 19,1 C 17,8 C 17,2 C 92 % 1013,7 hPa 0,0 l/m 0 min 0 min 0 W/m 6,4 km/h (2 Bft) 95,74 %
18.08.2019 01:34 19,1 C 17,8 C 17,2 C 92 % 1013,6 hPa 0,0 l/m 0 min 0 min 0 W/m 6,4 km/h (2 Bft) 95,74 %
18.08.2019 01:36 19,1 C 17,8 C 17,2 C 92 % 1013,7 hPa 0,0 l/m 0 min 0 min 0 W/m 6,4 km/h (2 Bft) 95,74 %
18.08.2019 01:38 19,1 C 17,8 C 17,2 C 92 % 1013,6 hPa 0,0 l/m 0 min 2 min 0 W/m 6,4 km/h (2 Bft) 95,74 %
18.08.2019 01:40 19,1 C 17,2 C 17,2 C 92 % 1013,6 hPa 0,0 l/m 0 min 2 min 0 W/m 9,7 km/h (2 Bft) 95,65 %
18.08.2019 01:42 19,1 C 17,2 C 16,7 C 92 % 1013,7 hPa 0,0 l/m 0 min 2 min 0 W/m 9,7 km/h (2 Bft) 100,00 %
18.08.2019 01:44 19,1 C 17,2 C 16,7 C 92 % 1013,6 hPa 0,0 l/m 0 min 2 min 0 W/m 9,7 km/h (2 Bft) 100,00 %
18.08.2019 01:46 19,0 C 17,2 C 16,7 C 92 % 1013,6 hPa 0,0 l/m 0 min 2 min 0 W/m 6,4 km/h (2 Bft) 100,00 %
18.08.2019 01:48 19,0 C 17,2 C 16,7 C 92 % 1013,6 hPa 0,0 l/m 0 min 2 min 0 W/m 6,4 km/h (2 Bft) 100,00 %
18.08.2019 01:50 19,0 C 17,2 C 16,7 C 92 % 1013,6 hPa 0,0 l/m 0 min 2 min 0 W/m 6,4 km/h (2 Bft) 100,00 %
18.08.2019 01:52 19,0 C 17,2 C 16,7 C 92 % 1013,6 hPa 0,0 l/m 0 min 2 min 0 W/m 3,2 km/h (1 Bft) 100,00 %
18.08.2019 01:54 19,0 C 17,2 C 16,7 C 92 % 1013,7 hPa 0,0 l/m 0 min 2 min 0 W/m 3,2 km/h (1 Bft) 100,00 %
18.08.2019 01:56 19,0 C 17,2 C 16,7 C 92 % 1013,7 hPa 0,0 l/m 0 min 2 min 0 W/m 6,4 km/h (2 Bft) 100,00 %
18.08.2019 01:58 19,0 C 17,2 C 16,7 C 92 % 1013,7 hPa 0,0 l/m 0 min 2 min 0 W/m 6,4 km/h (2 Bft) 100,00 %
18.08.2019 02:00 18,9 C 17,2 C 16,7 C 92 % 1013,6 hPa 0,0 l/m 0 min 2 min 0 W/m 3,2 km/h (1 Bft) 100,00 %
18.08.2019 02:02 18,9 C 17,2 C 16,7 C 93 % 1013,6 hPa 0,2 l/m 0 min 2 min 0 W/m 3,2 km/h (1 Bft) 100,00 %
18.08.2019 02:04 18,9 C 17,2 C 16,7 C 93 % 1013,6 hPa 0,0 l/m 0 min 2 min 0 W/m 3,2 km/h (1 Bft) 97,83 %
18.08.2019 02:06 18,9 C 17,2 C 16,7 C 93 % 1013,7 hPa 0,0 l/m 0 min 2 min 0 W/m 0,0 km/h (0 Bft) 100,00 %
18.08.2019 02:08 18,9 C 17,2 C 16,7 C 93 % 1013,6 hPa 0,0 l/m 0 min 2 min 0 W/m 3,2 km/h (1 Bft) 100,00 %
18.08.2019 02:10 18,9 C 17,2 C 16,7 C 93 % 1013,6 hPa 0,0 l/m 0 min 2 min 0 W/m 3,2 km/h (1 Bft) 97,87 %
18.08.2019 02:12 18,9 C 17,2 C 16,7 C 93 % 1013,6 hPa 0,0 l/m 0 min 2 min 0 W/m 3,2 km/h (1 Bft) 100,00 %
18.08.2019 02:14 18,9 C 17,2 C 16,7 C 93 % 1013,6 hPa 0,0 l/m 0 min 2 min 0 W/m 3,2 km/h (1 Bft) 100,00 %
18.08.2019 02:16 18,9 C 17,2 C 16,7 C 93 % 1013,7 hPa 0,0 l/m 0 min 2 min 0 W/m 0,0 km/h (0 Bft) 97,83 %
18.08.2019 02:18 18,9 C 17,2 C 16,7 C 93 % 1013,7 hPa 0,0 l/m 0 min 2 min 0 W/m 0,0 km/h (0 Bft) 100,00 %
18.08.2019 02:20 18,9 C 16,7 C 16,7 C 93 % 1013,8 hPa 0,0 l/m 0 min 2 min 0 W/m 3,2 km/h (1 Bft) 97,87 %
18.08.2019 02:22 18,9 C 16,7 C 16,7 C 93 % 1013,9 hPa 0,0 l/m 0 min 2 min 0 W/m 3,2 km/h (1 Bft) 93,62 %
18.08.2019 02:24 18,9 C 16,7 C 16,7 C 93 % 1013,8 hPa 0,0 l/m 0 min 2 min 0 W/m 3,2 km/h (1 Bft) 95,74 %
18.08.2019 02:26 18,9 C 16,7 C 16,7 C 93 % 1013,7 hPa 0,0 l/m 0 min 2 min 0 W/m 3,2 km/h (1 Bft) 97,87 %
18.08.2019 02:28 18,9 C 16,7 C 16,7 C 93 % 1013,6 hPa 0,0 l/m 0 min 2 min 0 W/m 3,2 km/h (1 Bft) 97,83 %
18.08.2019 02:30 18,9 C 16,7 C 16,7 C 93 % 1013,6 hPa 0,0 l/m 0 min 2 min 0 W/m 3,2 km/h (1 Bft) 97,87 %
18.08.2019 02:32 18,9 C 16,7 C 16,7 C 93 % 1013,8 hPa 0,0 l/m 0 min 2 min 0 W/m 3,2 km/h (1 Bft) 97,87 %
18.08.2019 02:34 18,9 C 16,7 C 16,7 C 93 % 1013,6 hPa 0,2 l/m 0 min 2 min 0 W/m 3,2 km/h (1 Bft) 97,87 %
18.08.2019 02:36 18,8 C 16,7 C 16,7 C 93 % 1013,6 hPa 0,0 l/m 0 min 2 min 0 W/m 3,2 km/h (1 Bft) 97,87 %
18.08.2019 02:38 18,8 C 16,7 C 16,7 C 93 % 1013,7 hPa 0,0 l/m 0 min 2 min 0 W/m 0,0 km/h (0 Bft) 97,83 %
18.08.2019 02:40 18,8 C 16,7 C 16,7 C 93 % 1014,0 hPa 0,0 l/m 0 min 2 min 0 W/m 3,2 km/h (1 Bft) 95,74 %
18.08.2019 02:42 18,8 C 16,1 C 16,1 C 93 % 1014,0 hPa 0,0 l/m 0 min 2 min 0 W/m 9,7 km/h (2 Bft) 97,87 %
18.08.2019 02:44 18,7 C 16,1 C 15,6 C 93 % 1014,1 hPa 0,4 l/m 0 min 2 min 0 W/m 9,7 km/h (2 Bft) 97,87 %
18.08.2019 02:46 18,6 C 15,6 C 15,6 C 93 % 1014,1 hPa 0,4 l/m 0 min 2 min 0 W/m 6,4 km/h (2 Bft) 97,87 %
18.08.2019 02:48 18,4 C 15,6 C 15,6 C 93 % 1014,1 hPa 0,4 l/m 0 min 2 min 0 W/m 6,4 km/h (2 Bft) 97,87 %
18.08.2019 02:50 18,3 C 15,6 C 15,6 C 92 % 1014,1 hPa 0,4 l/m 0 min 2 min 0 W/m 12,9 km/h (3 Bft) 95,65 %
18.08.2019 02:52 18,2 C 15,6 C 15,6 C 92 % 1014,1 hPa 0,0 l/m 0 min 2 min 0 W/m 6,4 km/h (2 Bft) 97,87 %
18.08.2019 02:54 18,1 C 15,0 C 15,0 C 92 % 1014,0 hPa 0,2 l/m 0 min 2 min 0 W/m 12,9 km/h (3 Bft) 97,87 %
18.08.2019 02:56 18,0 C 15,0 C 15,0 C 92 % 1014,0 hPa 0,0 l/m 0 min 2 min 0 W/m 6,4 km/h (2 Bft) 95,74 %
18.08.2019 02:58 17,9 C 15,0 C 15,0 C 92 % 1013,9 hPa 0,0 l/m 0 min 2 min 0 W/m 3,2 km/h (1 Bft) 97,87 %
18.08.2019 03:00 17,8 C 15,0 C 15,0 C 92 % 1013,9 hPa 0,2 l/m 0 min 2 min 0 W/m 12,9 km/h (3 Bft) 97,87 %
18.08.2019 03:02 17,7 C 15,0 C 15,0 C 92 % 1014,0 hPa 0,0 l/m 0 min 2 min 0 W/m 3,2 km/h (1 Bft) 97,83 %
18.08.2019 03:04 17,6 C 15,0 C 15,0 C 92 % 1014,0 hPa 0,0 l/m 0 min 2 min 0 W/m 6,4 km/h (2 Bft) 97,87 %
18.08.2019 03:06 17,4 C 15,0 C 15,0 C 92 % 1014,0 hPa 0,2 l/m 0 min 2 min 0 W/m 3,2 km/h (1 Bft) 97,87 %
18.08.2019 03:08 17,3 C 15,0 C 15,0 C 92 % 1014,0 hPa 0,2 l/m 0 min 2 min 0 W/m 0,0 km/h (0 Bft) 97,87 %
18.08.2019 03:10 17,3 C 14,4 C 14,4 C 92 % 1014,0 hPa 0,0 l/m 0 min 2 min 0 W/m 3,2 km/h (1 Bft) 100,00 %
18.08.2019 03:12 17,2 C 14,4 C 14,4 C 92 % 1014,0 hPa 0,0 l/m 0 min 2 min 0 W/m 3,2 km/h (1 Bft) 97,87 %
18.08.2019 03:14 17,1 C 14,4 C 15,0 C 92 % 1014,0 hPa 0,0 l/m 0 min 2 min 0 W/m 0,0 km/h (0 Bft) 100,00 %
18.08.2019 03:16 17,1 C 15,0 C 15,0 C 93 % 1014,0 hPa 0,2 l/m 0 min 2 min 0 W/m 0,0 km/h (0 Bft) 100,00 %
18.08.2019 03:18 17,0 C 14,4 C 14,4 C 93 % 1014,0 hPa 0,0 l/m 0 min 2 min 0 W/m 3,2 km/h (1 Bft) 97,87 %
18.08.2019 03:20 16,9 C 14,4 C 14,4 C 93 % 1013,9 hPa 0,2 l/m 0 min 2 min 0 W/m 0,0 km/h (0 Bft) 97,87 %
18.08.2019 03:22 16,9 C 14,4 C 14,4 C 93 % 1013,9 hPa 0,0 l/m 0 min 2 min 0 W/m 0,0 km/h (0 Bft) 97,87 %
18.08.2019 03:24 16,8 C 14,4 C 14,4 C 93 % 1013,9 hPa 0,0 l/m 0 min 2 min 0 W/m 0,0 km/h (0 Bft) 100,00 %
18.08.2019 03:26 16,8 C 14,4 C 14,4 C 93 % 1013,8 hPa 0,0 l/m 0 min 2 min 0 W/m 0,0 km/h (0 Bft) 100,00 %
18.08.2019 03:28 16,8 C 14,4 C 14,4 C 93 % 1013,9 hPa 0,0 l/m 0 min 2 min 0 W/m 0,0 km/h (0 Bft) 97,87 %
18.08.2019 03:30 16,7 C 14,4 C 14,4 C 93 % 1014,0 hPa 0,0 l/m 0 min 2 min 0 W/m 3,2 km/h (1 Bft) 97,87 %
18.08.2019 03:32 16,7 C 14,4 C 14,4 C 93 % 1014,0 hPa 0,0 l/m 0 min 2 min 0 W/m 3,2 km/h (1 Bft) 97,87 %
18.08.2019 03:34 16,7 C 14,4 C 14,4 C 93 % 1014,1 hPa 0,2 l/m 0 min 2 min 0 W/m 6,4 km/h (2 Bft) 100,00 %
18.08.2019 03:36 16,6 C 14,4 C 14,4 C 93 % 1014,1 hPa 0,2 l/m 0 min 2 min 0 W/m 6,4 km/h (2 Bft) 97,87 %
18.08.2019 03:38 16,5 C 14,4 C 14,4 C 93 % 1014,2 hPa 0,0 l/m 0 min 2 min 0 W/m 6,4 km/h (2 Bft) 97,83 %
18.08.2019 03:40 16,4 C 14,4 C 14,4 C 93 % 1014,2 hPa 0,2 l/m 0 min 2 min 0 W/m 3,2 km/h (1 Bft) 100,00 %
18.08.2019 03:42 16,4 C 14,4 C 14,4 C 93 % 1014,1 hPa 0,0 l/m 0 min 2 min 0 W/m 6,4 km/h (2 Bft) 97,87 %
18.08.2019 03:44 16,3 C 14,4 C 14,4 C 94 % 1014,1 hPa 0,2 l/m 0 min 2 min 0 W/m 6,4 km/h (2 Bft) 95,74 %
18.08.2019 03:46 16,3 C 14,4 C 14,4 C 94 % 1014,1 hPa 0,0 l/m 0 min 2 min 0 W/m 6,4 km/h (2 Bft) 97,87 %
18.08.2019 03:48 16,2 C 14,4 C 14,4 C 94 % 1014,2 hPa 0,0 l/m 0 min 2 min 0 W/m 3,2 km/h (1 Bft) 97,83 %
18.08.2019 03:50 16,2 C 14,4 C 14,4 C 94 % 1014,2 hPa 0,2 l/m 0 min 2 min 0 W/m 6,4 km/h (2 Bft) 97,87 %
18.08.2019 03:52 16,2 C 14,4 C 14,4 C 94 % 1014,3 hPa 0,0 l/m 0 min 2 min 0 W/m 3,2 km/h (1 Bft) 97,87 %
18.08.2019 03:54 16,1 C 14,4 C 14,4 C 94 % 1014,3 hPa 0,2 l/m 0 min 2 min 0 W/m 3,2 km/h (1 Bft) 97,87 %
18.08.2019 03:56 16,1 C 14,4 C 14,4 C 94 % 1014,3 hPa 0,0 l/m 0 min 2 min 0 W/m 3,2 km/h (1 Bft) 97,87 %
18.08.2019 03:58 16,1 C 13,9 C 14,4 C 94 % 1014,4 hPa 0,2 l/m 0 min 2 min 0 W/m 3,2 km/h (1 Bft) 97,87 %
18.08.2019 04:00 16,0 C 13,9 C 13,9 C 94 % 1014,4 hPa 0,0 l/m 0 min 2 min 0 W/m 3,2 km/h (1 Bft) 95,74 %
18.08.2019 04:02 15,9 C 13,9 C 13,9 C 94 % 1014,5 hPa 0,0 l/m 0 min 2 min 0 W/m 3,2 km/h (1 Bft) 100,00 %
18.08.2019 04:04 15,9 C 13,9 C 13,9 C 94 % 1014,5 hPa 0,0 l/m 0 min 2 min 0 W/m 9,7 km/h (2 Bft) 100,00 %
18.08.2019 04:06 15,8 C 13,9 C 13,9 C 94 % 1014,5 hPa 0,2 l/m 0 min 2 min 0 W/m 9,7 km/h (2 Bft) 100,00 %
18.08.2019 04:08 15,8 C 13,9 C 13,9 C 94 % 1014,5 hPa 0,0 l/m 0 min 2 min 0 W/m 9,7 km/h (2 Bft) 100,00 %
18.08.2019 04:10 15,8 C 13,9 C 13,9 C 94 % 1014,5 hPa 0,2 l/m 0 min 2 min 0 W/m 6,4 km/h (2 Bft) 97,87 %
18.08.2019 04:12 15,7 C 13,9 C 13,9 C 95 % 1014,5 hPa 0,2 l/m 0 min 2 min 0 W/m 6,4 km/h (2 Bft) 97,83 %
18.08.2019 04:14 15,7 C 13,9 C 13,9 C 95 % 1014,5 hPa 0,2 l/m 0 min 2 min 0 W/m 6,4 km/h (2 Bft) 95,74 %
18.08.2019 04:16 15,7 C 13,9 C 13,9 C 95 % 1014,4 hPa 0,0 l/m 0 min 2 min 0 W/m 6,4 km/h (2 Bft) 97,87 %
18.08.2019 04:18 15,6 C 13,9 C 13,9 C 95 % 1014,4 hPa 0,2 l/m 0 min 2 min 0 W/m 3,2 km/h (1 Bft) 93,62 %
18.08.2019 04:20 15,6 C 13,9 C 13,9 C 95 % 1014,4 hPa 0,2 l/m 0 min 2 min 0 W/m 16,1 km/h (3 Bft) 95,74 %
18.08.2019 04:22 15,6 C 13,9 C 13,9 C 95 % 1014,4 hPa 0,0 l/m 0 min 2 min 0 W/m 9,7 km/h (2 Bft) 95,74 %
18.08.2019 04:24 15,5 C 13,9 C 13,9 C 95 % 1014,5 hPa 0,2 l/m 0 min 2 min 0 W/m 9,7 km/h (2 Bft) 95,65 %
18.08.2019 04:26 15,5 C 13,9 C 13,9 C 95 % 1014,5 hPa 0,2 l/m 0 min 2 min 0 W/m 3,2 km/h (1 Bft) 95,74 %
18.08.2019 04:28 15,4 C 13,9 C 13,9 C 95 % 1014,5 hPa 0,2 l/m 0 min 2 min 0 W/m 6,4 km/h (2 Bft) 95,74 %
18.08.2019 04:30 15,4 C 13,9 C 13,9 C 95 % 1014,5 hPa 0,2 l/m 0 min 2 min 0 W/m 6,4 km/h (2 Bft) 95,74 %
18.08.2019 04:32 15,3 C 13,9 C 13,9 C 95 % 1014,4 hPa 0,2 l/m 0 min 2 min 0 W/m 6,4 km/h (2 Bft) 91,49 %
18.08.2019 04:34 15,3 C 13,3 C 13,9 C 95 % 1014,5 hPa 0,0 l/m 0 min 2 min 0 W/m 0,0 km/h (0 Bft) 91,49 %
18.08.2019 04:36 15,3 C 13,3 C 13,3 C 95 % 1014,5 hPa 0,2 l/m 0 min 2 min 0 W/m 3,2 km/h (1 Bft) 91,30 %
18.08.2019 04:38 15,2 C 13,3 C 13,3 C 95 % 1014,5 hPa 0,2 l/m 0 min 2 min 0 W/m 3,2 km/h (1 Bft) 95,74 %
18.08.2019 04:40 15,2 C 13,3 C 13,3 C 95 % 1014,5 hPa 0,0 l/m 0 min 2 min 0 W/m 3,2 km/h (1 Bft) 95,74 %
18.08.2019 04:42 15,2 C 13,3 C 13,3 C 95 % 1014,6 hPa 0,2 l/m 0 min 2 min 0 W/m 3,2 km/h (1 Bft) 93,62 %
18.08.2019 04:44 15,2 C 13,3 C 13,3 C 95 % 1014,6 hPa 0,0 l/m 0 min 2 min 0 W/m 6,4 km/h (2 Bft) 97,87 %
18.08.2019 04:46 15,1 C 13,3 C 13,3 C 95 % 1014,6 hPa 0,2 l/m 0 min 2 min 0 W/m 3,2 km/h (1 Bft) 97,87 %
18.08.2019 04:48 15,1 C 13,3 C 13,3 C 95 % 1014,5 hPa 0,0 l/m 0 min 2 min 0 W/m 3,2 km/h (1 Bft) 97,83 %
18.08.2019 04:50 15,1 C 13,3 C 13,3 C 95 % 1014,5 hPa 0,2 l/m 0 min 2 min 0 W/m 6,4 km/h (2 Bft) 97,87 %
18.08.2019 04:52 15,1 C 13,3 C 13,3 C 95 % 1014,4 hPa 0,0 l/m 0 min 2 min 0 W/m 6,4 km/h (2 Bft) 97,87 %
18.08.2019 04:54 15,0 C 13,3 C 13,3 C 95 % 1014,4 hPa 0,2 l/m 0 min 2 min 0 W/m 6,4 km/h (2 Bft) 97,87 %
18.08.2019 04:56 15,0 C 13,3 C 13,3 C 95 % 1014,5 hPa 0,0 l/m 0 min 2 min 0 W/m 3,2 km/h (1 Bft) 97,87 %
18.08.2019 04:58 14,9 C 13,3 C 13,3 C 95 % 1014,4 hPa 0,0 l/m 0 min 2 min 0 W/m 0,0 km/h (0 Bft) 97,83 %
18.08.2019 05:00 14,9 C 13,3 C 13,3 C 95 % 1014,4 hPa 0,2 l/m 0 min 2 min 0 W/m 3,2 km/h (1 Bft) 95,74 %
18.08.2019 05:02 14,9 C 13,3 C 13,3 C 95 % 1014,4 hPa 0,0 l/m 0 min 2 min 0 W/m 12,9 km/h (3 Bft) 97,87 %
18.08.2019 05:04 14,9 C 13,3 C 13,3 C 95 % 1014,4 hPa 0,2 l/m 0 min 2 min 0 W/m 6,4 km/h (2 Bft) 97,87 %
18.08.2019 05:06 14,9 C 13,3 C 13,3 C 95 % 1014,4 hPa 0,0 l/m 0 min 2 min 0 W/m 3,2 km/h (1 Bft) 97,87 %
18.08.2019 05:08 14,8 C 13,3 C 13,3 C 95 % 1014,4 hPa 0,2 l/m 0 min 2 min 0 W/m 3,2 km/h (1 Bft) 95,74 %
18.08.2019 05:10 14,8 C 13,3 C 13,3 C 95 % 1014,4 hPa 0,0 l/m 0 min 2 min 0 W/m 0,0 km/h (0 Bft) 95,65 %
18.08.2019 05:12 14,8 C 13,3 C 13,3 C 95 % 1014,3 hPa 0,2 l/m 0 min 2 min 0 W/m 6,4 km/h (2 Bft) 95,74 %
18.08.2019 05:14 14,8 C 13,3 C 13,3 C 96 % 1014,1 hPa 0,0 l/m 0 min 2 min 0 W/m 3,2 km/h (1 Bft) 97,87 %
18.08.2019 05:16 14,8 C 13,3 C 13,3 C 96 % 1014,0 hPa 0,2 l/m 0 min 2 min 0 W/m 0,0 km/h (0 Bft) 91,49 %
18.08.2019 05:18 14,8 C 13,3 C 13,3 C 96 % 1014,0 hPa 0,0 l/m 0 min 2 min 0 W/m 3,2 km/h (1 Bft) 97,87 %
18.08.2019 05:20 14,8 C 13,3 C 13,3 C 96 % 1014,0 hPa 0,0 l/m 0 min 2 min 0 W/m 0,0 km/h (0 Bft) 97,87 %
18.08.2019 05:22 14,7 C 13,3 C 12,8 C 96 % 1013,9 hPa 0,2 l/m 0 min 2 min 0 W/m 3,2 km/h (1 Bft) 97,83 %
18.08.2019 05:24 14,7 C 13,3 C 13,3 C 96 % 1013,9 hPa 0,0 l/m 0 min 2 min 0 W/m 0,0 km/h (0 Bft) 97,87 %
18.08.2019 05:26 14,7 C 13,3 C 13,3 C 96 % 1014,0 hPa 0,0 l/m 0 min 2 min 0 W/m 0,0 km/h (0 Bft) 93,62 %
18.08.2019 05:28 14,7 C 13,3 C 12,8 C 96 % 1013,9 hPa 0,0 l/m 0 min 0 min 0 W/m 3,2 km/h (1 Bft) 95,74 %
18.08.2019 05:30 14,7 C 13,3 C 12,8 C 96 % 1013,9 hPa 0,0 l/m 0 min 0 min 0 W/m 3,2 km/h (1 Bft) 97,87 %
18.08.2019 05:32 14,7 C 13,3 C 12,8 C 96 % 1014,0 hPa 0,0 l/m 0 min 2 min 0 W/m 0,0 km/h (0 Bft) 95,74 %
18.08.2019 05:34 14,7 C 13,3 C 13,3 C 96 % 1014,1 hPa 0,0 l/m 0 min 2 min 0 W/m 3,2 km/h (1 Bft) 97,83 %
18.08.2019 05:36 14,7 C 13,3 C 13,3 C 96 % 1014,1 hPa 0,0 l/m 0 min 2 min 0 W/m 6,4 km/h (2 Bft) 95,74 %
18.08.2019 05:38 14,6 C 13,3 C 12,8 C 96 % 1014,2 hPa 0,0 l/m 0 min 2 min 0 W/m 3,2 km/h (1 Bft) 97,87 %
18.08.2019 05:40 14,6 C 13,3 C 13,3 C 96 % 1014,2 hPa 0,0 l/m 0 min 2 min 0 W/m 6,4 km/h (2 Bft) 97,87 %
18.08.2019 05:42 14,6 C 13,3 C 12,8 C 96 % 1014,3 hPa 0,2 l/m 0 min 2 min 0 W/m 9,7 km/h (2 Bft) 95,74 %
18.08.2019 05:44 14,6 C 13,3 C 12,8 C 96 % 1014,2 hPa 0,0 l/m 0 min 2 min 0 W/m 6,4 km/h (2 Bft) 97,87 %
18.08.2019 05:46 14,6 C 13,3 C 12,8 C 96 % 1014,2 hPa 0,2 l/m 0 min 2 min 0 W/m 3,2 km/h (1 Bft) 97,83 %
18.08.2019 05:48 14,6 C 13,3 C 13,3 C 96 % 1014,1 hPa 0,0 l/m 0 min 2 min 0 W/m 3,2 km/h (1 Bft) 93,62 %
18.08.2019 05:50 14,6 C 13,3 C 13,3 C 96 % 1014,0 hPa 0,2 l/m 0 min 2 min 0 W/m 6,4 km/h (2 Bft) 95,74 %
18.08.2019 05:52 14,6 C 13,3 C 12,8 C 96 % 1014,0 hPa 0,0 l/m 0 min 2 min 0 W/m 6,4 km/h (2 Bft) 97,87 %
18.08.2019 05:54 14,6 C 13,3 C 12,8 C 96 % 1013,9 hPa 0,0 l/m 0 min 2 min 0 W/m 6,4 km/h (2 Bft) 97,87 %
18.08.2019 05:56 14,6 C 13,3 C 13,3 C 96 % 1013,9 hPa 0,2 l/m 0 min 2 min 0 W/m 6,4 km/h (2 Bft) 95,65 %
18.08.2019 05:58 14,6 C 13,3 C 13,3 C 96 % 1013,8 hPa 0,0 l/m 0 min 2 min 0 W/m 6,4 km/h (2 Bft) 100,00 %
18.08.2019 06:00 14,6 C 13,3 C 12,8 C 96 % 1013,8 hPa 0,0 l/m 0 min 2 min 0 W/m 9,7 km/h (2 Bft) 100,00 %
18.08.2019 06:02 14,6 C 13,3 C 12,8 C 96 % 1013,8 hPa 0,0 l/m 0 min 2 min 0 W/m 9,7 km/h (2 Bft) 97,87 %
18.08.2019 06:04 14,6 C 13,3 C 12,8 C 96 % 1013,8 hPa 0,0 l/m 0 min 2 min 0 W/m 6,4 km/h (2 Bft) 100,00 %
18.08.2019 06:08 14,6 C 13,3 C 12,8 C 96 % 1014,0 hPa 0,0 l/m 0 min 4 min 0 W/m 0,0 km/h (0 Bft) 96,77 %
18.08.2019 06:10 14,6 C 13,3 C 12,8 C 96 % 1014,0 hPa 0,0 l/m 0 min 2 min 0 W/m 0,0 km/h (0 Bft) 100,00 %
18.08.2019 06:12 14,5 C 13,3 C 12,8 C 96 % 1014,0 hPa 0,0 l/m 0 min 2 min 0 W/m 3,2 km/h (1 Bft) 100,00 %
18.08.2019 06:14 14,5 C 13,3 C 12,8 C 96 % 1014,0 hPa 0,0 l/m 0 min 2 min 0 W/m 3,2 km/h (1 Bft) 100,00 %
18.08.2019 06:16 14,5 C 13,3 C 12,8 C 96 % 1014,0 hPa 0,0 l/m 0 min 2 min 0 W/m 3,2 km/h (1 Bft) 100,00 %
18.08.2019 06:18 14,5 C 13,3 C 13,3 C 96 % 1013,8 hPa 0,0 l/m 0 min 2 min 0 W/m 0,0 km/h (0 Bft) 97,87 %
18.08.2019 06:20 14,5 C 13,3 C 12,8 C 96 % 1013,3 hPa 0,0 l/m 0 min 2 min 0 W/m 9,7 km/h (2 Bft) 100,00 %
18.08.2019 06:22 14,5 C 13,3 C 13,3 C 96 % 1013,3 hPa 0,2 l/m 0 min 2 min 0 W/m 6,4 km/h (2 Bft) 97,87 %
18.08.2019 06:24 14,5 C 13,3 C 12,8 C 96 % 1013,5 hPa 0,0 l/m 0 min 2 min 0 W/m 12,9 km/h (3 Bft) 100,00 %
18.08.2019 06:26 14,5 C 13,3 C 12,8 C 96 % 1013,7 hPa 0,0 l/m 0 min 2 min 0 W/m 6,4 km/h (2 Bft) 100,00 %
18.08.2019 06:28 14,5 C 13,3 C 12,8 C 97 % 1013,7 hPa 0,0 l/m 0 min 2 min 0 W/m 6,4 km/h (2 Bft) 100,00 %
18.08.2019 06:30 14,5 C 13,3 C 12,8 C 97 % 1013,8 hPa 0,0 l/m 0 min 2 min 0 W/m 6,4 km/h (2 Bft) 97,87 %
18.08.2019 06:32 14,5 C 13,3 C 12,8 C 97 % 1013,8 hPa 0,0 l/m 0 min 2 min 0 W/m 3,2 km/h (1 Bft) 97,83 %
18.08.2019 06:34 14,5 C 13,3 C 12,8 C 97 % 1013,7 hPa 0,0 l/m 0 min 2 min 0 W/m 6,4 km/h (2 Bft) 100,00 %
18.08.2019 06:36 14,5 C 13,3 C 12,8 C 97 % 1013,7 hPa 0,0 l/m 0 min 2 min 0 W/m 6,4 km/h (2 Bft) 97,87 %
18.08.2019 06:38 14,5 C 13,3 C 12,8 C 97 % 1013,7 hPa 0,0 l/m 0 min 2 min 0 W/m 3,2 km/h (1 Bft) 100,00 %
18.08.2019 06:40 14,4 C 13,3 C 12,8 C 97 % 1013,7 hPa 0,0 l/m 0 min 0 min 0 W/m 3,2 km/h (1 Bft) 97,87 %
18.08.2019 06:42 14,4 C 13,3 C 12,8 C 97 % 1013,8 hPa 0,0 l/m 0 min 0 min 0 W/m 3,2 km/h (1 Bft) 97,87 %
18.08.2019 06:44 14,4 C 13,3 C 12,8 C 97 % 1013,7 hPa 0,0 l/m 0 min 0 min 0 W/m 3,2 km/h (1 Bft) 100,00 %
18.08.2019 06:46 14,4 C 13,3 C 12,8 C 97 % 1013,6 hPa 0,0 l/m 0 min 0 min 2 W/m 6,4 km/h (2 Bft) 97,87 %
18.08.2019 06:48 14,4 C 13,3 C 12,8 C 97 % 1013,6 hPa 0,0 l/m 0 min 0 min 1 W/m 9,7 km/h (2 Bft) 97,87 %
18.08.2019 06:50 14,4 C 13,3 C 12,8 C 97 % 1013,5 hPa 0,0 l/m 0 min 0 min 5 W/m 9,7 km/h (2 Bft) 95,74 %
18.08.2019 06:52 14,4 C 13,3 C 12,8 C 97 % 1013,5 hPa 0,0 l/m 0 min 0 min 5 W/m 9,7 km/h (2 Bft) 97,87 %
18.08.2019 06:54 14,3 C 13,3 C 12,8 C 97 % 1013,3 hPa 0,0 l/m 0 min 0 min 5 W/m 9,7 km/h (2 Bft) 97,87 %
18.08.2019 06:56 14,3 C 13,3 C 12,8 C 97 % 1013,2 hPa 0,0 l/m 0 min 0 min 5 W/m 3,2 km/h (1 Bft) 93,48 %
18.08.2019 06:58 14,3 C 13,3 C 12,8 C 97 % 1013,2 hPa 0,0 l/m 0 min 0 min 5 W/m 6,4 km/h (2 Bft) 97,87 %
18.08.2019 07:00 14,3 C 13,3 C 12,8 C 97 % 1013,1 hPa 0,0 l/m 0 min 0 min 7 W/m 6,4 km/h (2 Bft) 95,74 %
18.08.2019 07:02 14,3 C 13,3 C 12,8 C 97 % 1013,2 hPa 0,0 l/m 0 min 0 min 7 W/m 0,0 km/h (0 Bft) 95,74 %
18.08.2019 07:04 14,3 C 13,3 C 12,8 C 97 % 1013,2 hPa 0,0 l/m 0 min 0 min 7 W/m 9,7 km/h (2 Bft) 97,87 %
18.08.2019 07:06 14,2 C 13,3 C 12,8 C 97 % 1013,2 hPa 0,0 l/m 0 min 0 min 9 W/m 9,7 km/h (2 Bft) 97,83 %
18.08.2019 07:08 14,2 C 13,3 C 12,8 C 97 % 1013,2 hPa 0,0 l/m 0 min 0 min 9 W/m 6,4 km/h (2 Bft) 97,87 %
18.08.2019 07:10 14,2 C 13,3 C 12,8 C 97 % 1013,2 hPa 0,0 l/m 0 min 0 min 11 W/m 6,4 km/h (2 Bft) 97,87 %
18.08.2019 07:12 14,2 C 13,3 C 12,8 C 97 % 1013,2 hPa 0,0 l/m 0 min 0 min 12 W/m 6,4 km/h (2 Bft) 97,87 %
18.08.2019 07:14 14,2 C 13,3 C 12,8 C 97 % 1013,2 hPa 0,0 l/m 0 min 2 min 12 W/m 6,4 km/h (2 Bft) 97,87 %
18.08.2019 07:16 14,2 C 13,3 C 12,8 C 97 % 1013,1 hPa 0,0 l/m 0 min 0 min 13 W/m 6,4 km/h (2 Bft) 97,87 %
18.08.2019 07:18 14,2 C 13,3 C 12,8 C 97 % 1013,3 hPa 0,0 l/m 0 min 0 min 14 W/m 3,2 km/h (1 Bft) 97,83 %
18.08.2019 07:20 14,2 C 13,3 C 12,8 C 97 % 1013,3 hPa 0,0 l/m 0 min 0 min 16 W/m 3,2 km/h (1 Bft) 97,87 %
18.08.2019 07:22 14,2 C 13,3 C 12,8 C 97 % 1013,2 hPa 0,0 l/m 0 min 0 min 20 W/m 6,4 km/h (2 Bft) 97,87 %
18.08.2019 07:24 14,2 C 13,3 C 12,8 C 97 % 1013,0 hPa 0,0 l/m 0 min 2 min 26 W/m 9,7 km/h (2 Bft) 97,87 %
18.08.2019 07:26 14,2 C 13,3 C 12,8 C 97 % 1013,0 hPa 0,0 l/m 0 min 0 min 28 W/m 6,4 km/h (2 Bft) 97,87 %
18.08.2019 07:28 14,2 C 13,3 C 13,3 C 97 % 1013,0 hPa 0,0 l/m 0 min 0 min 24 W/m 6,4 km/h (2 Bft) 97,87 %
18.08.2019 07:30 14,3 C 13,3 C 12,8 C 97 % 1013,0 hPa 0,0 l/m 0 min 0 min 19 W/m 9,7 km/h (2 Bft) 97,83 %
18.08.2019 07:32 14,3 C 13,3 C 12,8 C 97 % 1013,1 hPa 0,0 l/m 0 min 0 min 18 W/m 16,1 km/h (3 Bft) 95,74 %
18.08.2019 07:34 14,3 C 13,3 C 12,8 C 97 % 1013,1 hPa 0,0 l/m 0 min 0 min 18 W/m 0,0 km/h (0 Bft) 97,87 %
18.08.2019 07:36 14,2 C 13,3 C 12,8 C 97 % 1013,1 hPa 0,0 l/m 0 min 0 min 21 W/m 3,2 km/h (1 Bft) 100,00 %
18.08.2019 07:38 14,3 C 13,3 C 12,8 C 97 % 1013,1 hPa 0,0 l/m 0 min 0 min 20 W/m 9,7 km/h (2 Bft) 97,87 %
18.08.2019 07:40 14,3 C 13,3 C 12,8 C 97 % 1013,1 hPa 0,0 l/m 0 min 0 min 19 W/m 9,7 km/h (2 Bft) 100,00 %
18.08.2019 07:42 14,3 C 13,3 C 12,8 C 97 % 1013,1 hPa 0,0 l/m 0 min 0 min 19 W/m 6,4 km/h (2 Bft) 100,00 %
18.08.2019 07:44 14,3 C 13,3 C 12,8 C 97 % 1013,1 hPa 0,0 l/m 0 min 2 min 21 W/m 6,4 km/h (2 Bft) 97,87 %
18.08.2019 07:46 14,3 C 13,3 C 12,8 C 97 % 1013,1 hPa 0,0 l/m 0 min 0 min 21 W/m 12,9 km/h (3 Bft) 97,87 %
18.08.2019 07:48 14,2 C 13,3 C 12,8 C 97 % 1013,0 hPa 0,0 l/m 0 min 2 min 23 W/m 6,4 km/h (2 Bft) 95,74 %
18.08.2019 07:50 14,3 C 13,3 C 12,8 C 97 % 1012,9 hPa 0,2 l/m 0 min 2 min 23 W/m 9,7 km/h (2 Bft) 95,74 %
18.08.2019 07:52 14,3 C 13,3 C 12,8 C 97 % 1012,9 hPa 0,0 l/m 0 min 2 min 22 W/m 12,9 km/h (3 Bft) 93,62 %
18.08.2019 07:54 14,3 C 13,3 C 12,8 C 97 % 1012,9 hPa 0,0 l/m 0 min 2 min 21 W/m 9,7 km/h (2 Bft) 95,65 %
18.08.2019 07:56 14,3 C 13,3 C 12,8 C 97 % 1012,9 hPa 0,0 l/m 0 min 2 min 19 W/m 6,4 km/h (2 Bft) 95,74 %
18.08.2019 07:58 14,3 C 13,3 C 12,8 C 97 % 1012,9 hPa 0,0 l/m 0 min 2 min 17 W/m 16,1 km/h (3 Bft) 95,74 %
18.08.2019 08:00 14,3 C 13,3 C 12,8 C 97 % 1012,9 hPa 0,0 l/m 0 min 2 min 17 W/m 6,4 km/h (2 Bft) 91,49 %
18.08.2019 08:02 14,3 C 13,3 C 12,8 C 97 % 1012,9 hPa 0,0 l/m 0 min 2 min 20 W/m 9,7 km/h (2 Bft) 95,74 %
18.08.2019 08:04 14,3 C 13,3 C 12,8 C 97 % 1013,0 hPa 0,0 l/m 0 min 2 min 20 W/m 9,7 km/h (2 Bft) 95,65 %
18.08.2019 08:06 14,3 C 13,3 C 12,8 C 97 % 1012,9 hPa 0,0 l/m 0 min 2 min 20 W/m 12,9 km/h (3 Bft) 95,74 %
18.08.2019 08:08 14,2 C 13,3 C 12,8 C 97 % 1012,9 hPa 0,0 l/m 0 min 2 min 22 W/m 6,4 km/h (2 Bft) 93,62 %
18.08.2019 08:10 14,2 C 13,3 C 12,8 C 97 % 1012,9 hPa 0,0 l/m 0 min 2 min 23 W/m 6,4 km/h (2 Bft) 95,74 %
18.08.2019 08:12 14,2 C 13,3 C 12,8 C 98 % 1012,8 hPa 0,0 l/m 0 min 2 min 24 W/m 9,7 km/h (2 Bft) 95,74 %
18.08.2019 08:14 14,2 C 13,3 C 12,8 C 98 % 1013,0 hPa 0,0 l/m 0 min 2 min 24 W/m 9,7 km/h (2 Bft) 95,74 %
18.08.2019 08:16 14,2 C 13,3 C 12,8 C 98 % 1012,9 hPa 0,0 l/m 0 min 2 min 21 W/m 12,9 km/h (3 Bft) 95,65 %
18.08.2019 08:18 14,2 C 13,3 C 12,8 C 98 % 1012,9 hPa 0,0 l/m 0 min 2 min 19 W/m 12,9 km/h (3 Bft) 95,74 %
18.08.2019 08:20 14,2 C 13,3 C 12,8 C 98 % 1012,9 hPa 0,0 l/m 0 min 2 min 19 W/m 6,4 km/h (2 Bft) 95,74 %
18.08.2019 08:22 14,2 C 13,3 C 12,8 C 98 % 1012,9 hPa 0,2 l/m 0 min 2 min 21 W/m 9,7 km/h (2 Bft) 95,74 %
18.08.2019 08:24 14,2 C 13,3 C 12,8 C 98 % 1012,8 hPa 0,0 l/m 0 min 2 min 24 W/m 6,4 km/h (2 Bft) 95,74 %
18.08.2019 08:26 14,2 C 13,3 C 12,8 C 98 % 1012,8 hPa 0,0 l/m 0 min 2 min 27 W/m 6,4 km/h (2 Bft) 93,62 %
18.08.2019 08:28 14,2 C 13,3 C 12,8 C 98 % 1012,8 hPa 0,0 l/m 0 min 2 min 30 W/m 6,4 km/h (2 Bft) 95,65 %
18.08.2019 08:30 14,2 C 13,3 C 12,8 C 98 % 1012,8 hPa 0,0 l/m 0 min 2 min 34 W/m 9,7 km/h (2 Bft) 95,74 %
18.08.2019 08:32 14,2 C 13,3 C 12,8 C 98 % 1012,7 hPa 0,0 l/m 0 min 2 min 37 W/m 6,4 km/h (2 Bft) 97,87 %
18.08.2019 08:34 14,2 C 13,3 C 13,3 C 98 % 1012,7 hPa 0,0 l/m 0 min 2 min 39 W/m 3,2 km/h (1 Bft) 97,87 %
18.08.2019 08:36 14,2 C 13,3 C 13,3 C 98 % 1012,7 hPa 0,2 l/m 0 min 2 min 43 W/m 9,7 km/h (2 Bft) 97,87 %
18.08.2019 08:38 14,3 C 13,3 C 13,3 C 98 % 1012,6 hPa 0,0 l/m 0 min 2 min 47 W/m 6,4 km/h (2 Bft) 97,87 %
18.08.2019 08:40 14,3 C 13,3 C 13,3 C 98 % 1012,5 hPa 0,0 l/m 0 min 2 min 49 W/m 6,4 km/h (2 Bft) 97,83 %
18.08.2019 08:42 14,3 C 13,3 C 13,3 C 98 % 1012,5 hPa 0,0 l/m 0 min 2 min 47 W/m 9,7 km/h (2 Bft) 100,00 %
18.08.2019 08:44 14,3 C 13,3 C 13,3 C 98 % 1012,4 hPa 0,0 l/m 0 min 2 min 51 W/m 9,7 km/h (2 Bft) 93,62 %
18.08.2019 08:46 14,3 C 13,3 C 13,3 C 98 % 1012,3 hPa 0,0 l/m 0 min 2 min 53 W/m 9,7 km/h (2 Bft) 100,00 %
18.08.2019 08:48 14,3 C 13,3 C 12,8 C 98 % 1012,3 hPa 0,0 l/m 0 min 2 min 59 W/m 16,1 km/h (3 Bft) 97,87 %
18.08.2019 08:50 14,3 C 13,3 C 13,3 C 98 % 1012,3 hPa 0,0 l/m 0 min 2 min 63 W/m 16,1 km/h (3 Bft) 100,00 %
18.08.2019 08:52 14,3 C 13,3 C 13,3 C 98 % 1012,2 hPa 0,0 l/m 0 min 2 min 63 W/m 9,7 km/h (2 Bft) 97,83 %
18.08.2019 08:54 14,4 C 13,9 C 13,3 C 98 % 1012,2 hPa 0,0 l/m 0 min 2 min 62 W/m 16,1 km/h (3 Bft) 100,00 %
18.08.2019 08:56 14,4 C 13,9 C 13,3 C 98 % 1012,1 hPa 0,0 l/m 0 min 2 min 66 W/m 16,1 km/h (3 Bft) 100,00 %
18.08.2019 08:58 14,4 C 13,9 C 13,3 C 98 % 1012,1 hPa 0,0 l/m 0 min 2 min 79 W/m 19,3 km/h (3 Bft) 100,00 %
18.08.2019 09:00 14,4 C 13,9 C 13,3 C 98 % 1012,1 hPa 0,0 l/m 0 min 0 min 82 W/m 9,7 km/h (2 Bft) 100,00 %
18.08.2019 09:02 14,4 C 13,9 C 13,3 C 98 % 1012,0 hPa 0,0 l/m 0 min 2 min 79 W/m 6,4 km/h (2 Bft) 97,87 %
18.08.2019 09:04 14,4 C 13,9 C 13,3 C 98 % 1012,1 hPa 0,0 l/m 0 min 2 min 68 W/m 16,1 km/h (3 Bft) 100,00 %
18.08.2019 09:06 14,5 C 13,9 C 13,3 C 98 % 1012,0 hPa 0,0 l/m 0 min 2 min 65 W/m 12,9 km/h (3 Bft) 100,00 %
18.08.2019 09:08 14,5 C 13,9 C 13,3 C 98 % 1012,0 hPa 0,0 l/m 0 min 2 min 63 W/m 16,1 km/h (3 Bft) 100,00 %
18.08.2019 09:10 14,5 C 13,9 C 13,3 C 98 % 1012,0 hPa 0,0 l/m 0 min 2 min 71 W/m 12,9 km/h (3 Bft) 100,00 %
18.08.2019 09:12 14,5 C 13,9 C 13,3 C 98 % 1012,0 hPa 0,2 l/m 0 min 2 min 81 W/m 9,7 km/h (2 Bft) 97,87 %
18.08.2019 09:14 14,6 C 13,9 C 13,3 C 98 % 1012,0 hPa 0,0 l/m 0 min 2 min 87 W/m 12,9 km/h (3 Bft) 100,00 %
18.08.2019 09:16 14,6 C 13,9 C 13,3 C 98 % 1012,0 hPa 0,0 l/m 0 min 2 min 64 W/m 16,1 km/h (3 Bft) 100,00 %
18.08.2019 09:18 14,6 C 13,9 C 13,3 C 98 % 1011,9 hPa 0,2 l/m 0 min 2 min 55 W/m 6,4 km/h (2 Bft) 100,00 %
18.08.2019 09:20 14,6 C 13,9 C 13,3 C 98 % 1011,9 hPa 0,0 l/m 0 min 2 min 57 W/m 16,1 km/h (3 Bft) 100,00 %
18.08.2019 09:22 14,6 C 13,9 C 13,3 C 98 % 1011,8 hPa 0,0 l/m 0 min 2 min 50 W/m 6,4 km/h (2 Bft) 100,00 %
18.08.2019 09:24 14,6 C 13,9 C 13,3 C 98 % 1011,7 hPa 0,0 l/m 0 min 2 min 47 W/m 6,4 km/h (2 Bft) 100,00 %
18.08.2019 09:26 14,6 C 13,9 C 13,3 C 98 % 1011,7 hPa 0,0 l/m 0 min 0 min 58 W/m 6,4 km/h (2 Bft) 97,83 %
18.08.2019 09:28 14,6 C 13,9 C 13,3 C 98 % 1011,6 hPa 0,0 l/m 0 min 0 min 71 W/m 9,7 km/h (2 Bft) 100,00 %
18.08.2019 09:30 14,6 C 13,9 C 13,3 C 98 % 1011,6 hPa 0,0 l/m 0 min 2 min 83 W/m 9,7 km/h (2 Bft) 97,87 %
18.08.2019 09:32 14,6 C 13,9 C 13,3 C 98 % 1011,6 hPa 0,0 l/m 0 min 0 min 94 W/m 9,7 km/h (2 Bft) 100,00 %
18.08.2019 09:34 14,7 C 13,9 C 13,3 C 98 % 1011,4 hPa 0,0 l/m 0 min 2 min 92 W/m 16,1 km/h (3 Bft) 100,00 %
18.08.2019 09:36 14,7 C 13,9 C 13,3 C 98 % 1011,4 hPa 0,0 l/m 0 min 2 min 83 W/m 16,1 km/h (3 Bft) 97,87 %
18.08.2019 09:38 14,7 C 13,9 C 13,9 C 98 % 1011,4 hPa 0,0 l/m 0 min 2 min 86 W/m 12,9 km/h (3 Bft) 97,83 %
18.08.2019 09:40 14,7 C 13,9 C 13,3 C 98 % 1011,4 hPa 0,0 l/m 0 min 2 min 85 W/m 12,9 km/h (3 Bft) 97,87 %
18.08.2019 09:42 14,7 C 13,9 C 13,9 C 98 % 1011,4 hPa 0,0 l/m 0 min 2 min 75 W/m 9,7 km/h (2 Bft) 97,87 %
18.08.2019 09:44 14,7 C 13,9 C 13,3 C 98 % 1011,3 hPa 0,0 l/m 0 min 2 min 75 W/m 9,7 km/h (2 Bft) 97,87 %
18.08.2019 09:46 14,7 C 13,9 C 13,3 C 98 % 1011,3 hPa 0,0 l/m 0 min 2 min 84 W/m 9,7 km/h (2 Bft) 95,74 %
18.08.2019 09:48 14,7 C 13,9 C 13,9 C 98 % 1011,2 hPa 0,0 l/m 0 min 2 min 91 W/m 9,7 km/h (2 Bft) 97,87 %
18.08.2019 09:50 14,7 C 13,9 C 13,9 C 98 % 1011,1 hPa 0,0 l/m 0 min 2 min 84 W/m 6,4 km/h (2 Bft) 95,65 %
18.08.2019 09:52 14,8 C 13,9 C 13,9 C 98 % 1011,0 hPa 0,0 l/m 0 min 0 min 79 W/m 9,7 km/h (2 Bft) 97,87 %
18.08.2019 09:54 14,8 C 13,9 C 13,3 C 98 % 1011,0 hPa 0,0 l/m 0 min 2 min 90 W/m 12,9 km/h (3 Bft) 97,87 %
18.08.2019 09:56 14,8 C 13,9 C 13,3 C 98 % 1010,9 hPa 0,0 l/m 0 min 2 min 91 W/m 16,1 km/h (3 Bft) 97,87 %
18.08.2019 09:58 14,8 C 13,9 C 13,3 C 98 % 1010,8 hPa 0,0 l/m 0 min 2 min 90 W/m 16,1 km/h (3 Bft) 95,74 %
18.08.2019 10:00 14,8 C 13,9 C 13,9 C 98 % 1010,8 hPa 0,0 l/m 0 min 2 min 104 W/m 9,7 km/h (2 Bft) 100,00 %
18.08.2019 10:02 14,8 C 14,4 C 13,9 C 98 % 1010,8 hPa 0,2 l/m 0 min 2 min 110 W/m 12,9 km/h (3 Bft) 95,65 %
18.08.2019 10:04 14,8 C 14,4 C 13,9 C 98 % 1010,8 hPa 0,0 l/m 0 min 0 min 90 W/m 12,9 km/h (3 Bft) 98,08 %
18.08.2019 10:06 14,8 C 14,4 C 13,9 C 98 % 1010,7 hPa 0,0 l/m 0 min 0 min 66 W/m 6,4 km/h (2 Bft) 97,87 %
18.08.2019 10:08 14,8 C 14,4 C 13,9 C 98 % 1010,7 hPa 0,0 l/m 0 min 0 min 68 W/m 6,4 km/h (2 Bft) 97,87 %
18.08.2019 10:10 14,9 C 14,4 C 13,9 C 98 % 1010,6 hPa 0,0 l/m 0 min 0 min 86 W/m 9,7 km/h (2 Bft) 95,74 %
18.08.2019 10:12 14,9 C 14,4 C 13,9 C 98 % 1010,5 hPa 0,0 l/m 0 min 2 min 103 W/m 9,7 km/h (2 Bft) 97,83 %
18.08.2019 10:14 14,9 C 14,4 C 13,9 C 98 % 1010,5 hPa 0,0 l/m 0 min 2 min 101 W/m 9,7 km/h (2 Bft) 95,74 %
18.08.2019 10:16 14,9 C 14,4 C 13,9 C 98 % 1010,4 hPa 0,0 l/m 0 min 2 min 87 W/m 9,7 km/h (2 Bft) 97,87 %
18.08.2019 10:18 15,0 C 14,4 C 13,9 C 98 % 1010,4 hPa 0,0 l/m 0 min 2 min 93 W/m 6,4 km/h (2 Bft) 97,87 %
18.08.2019 10:20 15,0 C 14,4 C 13,9 C 98 % 1010,4 hPa 0,0 l/m 0 min 2 min 103 W/m 25,7 km/h (4 Bft) 95,74 %
18.08.2019 10:22 15,0 C 14,4 C 13,9 C 98 % 1010,4 hPa 0,0 l/m 0 min 2 min 95 W/m 19,3 km/h (3 Bft) 95,74 %
18.08.2019 10:24 15,0 C 14,4 C 13,9 C 98 % 1010,4 hPa 0,0 l/m 0 min 2 min 120 W/m 9,7 km/h (2 Bft) 97,83 %
18.08.2019 10:26 15,0 C 14,4 C 13,9 C 98 % 1010,3 hPa 0,0 l/m 0 min 2 min 123 W/m 16,1 km/h (3 Bft) 95,74 %
18.08.2019 10:28 15,1 C 14,4 C 13,9 C 98 % 1010,3 hPa 0,0 l/m 0 min 2 min 121 W/m 12,9 km/h (3 Bft) 95,74 %
18.08.2019 10:30 15,1 C 14,4 C 13,9 C 98 % 1010,3 hPa 0,2 l/m 0 min 2 min 144 W/m 16,1 km/h (3 Bft) 97,87 %
18.08.2019 10:32 15,1 C 14,4 C 14,4 C 98 % 1010,2 hPa 0,0 l/m 0 min 2 min 150 W/m 6,4 km/h (2 Bft) 97,87 %
18.08.2019 10:34 15,2 C 14,4 C 13,9 C 98 % 1010,2 hPa 0,0 l/m 0 min 2 min 125 W/m 9,7 km/h (2 Bft) 95,74 %
18.08.2019 10:36 15,2 C 14,4 C 13,9 C 98 % 1010,2 hPa 0,0 l/m 0 min 2 min 108 W/m 12,9 km/h (3 Bft) 97,83 %
18.08.2019 10:38 15,2 C 14,4 C 14,4 C 98 % 1010,2 hPa 0,0 l/m 0 min 2 min 91 W/m 3,2 km/h (1 Bft) 97,87 %
18.08.2019 10:40 15,2 C 14,4 C 14,4 C 99 % 1010,1 hPa 0,0 l/m 0 min 2 min 97 W/m 0,0 km/h (0 Bft) 97,87 %
18.08.2019 10:42 15,3 C 14,4 C 14,4 C 99 % 1010,2 hPa 0,0 l/m 0 min 2 min 92 W/m 0,0 km/h (0 Bft) 93,62 %
18.08.2019 10:44 15,3 C 14,4 C 14,4 C 99 % 1010,1 hPa 0,0 l/m 0 min 2 min 84 W/m 0,0 km/h (0 Bft) 97,87 %
18.08.2019 10:46 15,3 C 14,4 C 14,4 C 99 % 1010,0 hPa 0,0 l/m 0 min 2 min 93 W/m 0,0 km/h (0 Bft) 97,83 %
18.08.2019 10:48 15,3 C 15,0 C 14,4 C 99 % 1010,0 hPa 0,0 l/m 0 min 2 min 109 W/m 0,0 km/h (0 Bft) 97,87 %
18.08.2019 10:50 15,3 C 14,4 C 14,4 C 99 % 1010,0 hPa 0,0 l/m 0 min 2 min 101 W/m 0,0 km/h (0 Bft) 97,87 %
18.08.2019 10:52 15,4 C 14,4 C 14,4 C 99 % 1009,9 hPa 0,2 l/m 0 min 2 min 95 W/m 0,0 km/h (0 Bft) 97,87 %
18.08.2019 10:54 15,3 C 14,4 C 14,4 C 99 % 1009,9 hPa 0,0 l/m 0 min 2 min 100 W/m 0,0 km/h (0 Bft) 97,87 %
18.08.2019 10:56 15,4 C 14,4 C 14,4 C 99 % 1009,9 hPa 0,0 l/m 0 min 2 min 108 W/m 0,0 km/h (0 Bft) 97,87 %
18.08.2019 10:58 15,4 C 15,0 C 14,4 C 99 % 1009,8 hPa 0,0 l/m 0 min 2 min 105 W/m 0,0 km/h (0 Bft) 97,83 %
18.08.2019 11:00 15,4 C 14,4 C 14,4 C 99 % 1009,7 hPa 0,0 l/m 0 min 0 min 98 W/m 0,0 km/h (0 Bft) 93,62 %
18.08.2019 11:02 15,4 C 15,0 C 14,4 C 99 % 1009,6 hPa 0,0 l/m 0 min 0 min 98 W/m 0,0 km/h (0 Bft) 95,74 %
18.08.2019 11:04 15,4 C 15,0 C 15,0 C 98 % 1009,7 hPa 0,0 l/m 0 min 0 min 92 W/m 0,0 km/h (0 Bft) 97,87 %
18.08.2019 11:06 15,4 C 14,4 C 14,4 C 99 % 1009,6 hPa 0,0 l/m 0 min 0 min 87 W/m 0,0 km/h (0 Bft) 97,87 %
18.08.2019 11:08 15,4 C 14,4 C 14,4 C 98 % 1009,7 hPa 0,0 l/m 0 min 0 min 97 W/m 3,2 km/h (1 Bft) 95,74 %
18.08.2019 11:10 15,4 C 15,0 C 15,0 C 99 % 1009,5 hPa 0,0 l/m 0 min 2 min 155 W/m 0,0 km/h (0 Bft) 97,83 %
18.08.2019 11:12 15,5 C 15,6 C 15,0 C 99 % 1009,4 hPa 0,2 l/m 0 min 2 min 185 W/m 3,2 km/h (1 Bft) 100,00 %
18.08.2019 11:14 15,6 C 15,0 C 15,0 C 99 % 1009,4 hPa 0,0 l/m 0 min 2 min 175 W/m 6,4 km/h (2 Bft) 97,87 %
18.08.2019 11:16 15,6 C 15,0 C 15,0 C 99 % 1009,4 hPa 0,0 l/m 0 min 2 min 131 W/m 6,4 km/h (2 Bft) 95,74 %
18.08.2019 11:18 15,6 C 15,0 C 14,4 C 99 % 1009,5 hPa 0,0 l/m 0 min 2 min 72 W/m 6,4 km/h (2 Bft) 97,87 %
18.08.2019 11:20 15,6 C 14,4 C 14,4 C 99 % 1009,6 hPa 0,0 l/m 0 min 2 min 55 W/m 0,0 km/h (0 Bft) 97,87 %
18.08.2019 11:22 15,6 C 14,4 C 14,4 C 99 % 1009,8 hPa 0,0 l/m 0 min 2 min 36 W/m 3,2 km/h (1 Bft) 97,83 %
18.08.2019 11:24 15,6 C 14,4 C 14,4 C 98 % 1009,5 hPa 0,0 l/m 0 min 2 min 59 W/m 0,0 km/h (0 Bft) 97,83 %
18.08.2019 11:26 15,6 C 15,0 C 14,4 C 98 % 1009,4 hPa 0,0 l/m 0 min 2 min 105 W/m 0,0 km/h (0 Bft) 97,87 %
18.08.2019 11:28 15,6 C 15,0 C 15,0 C 98 % 1009,4 hPa 0,2 l/m 0 min 2 min 125 W/m 0,0 km/h (0 Bft) 97,87 %
18.08.2019 11:30 15,6 C 15,0 C 15,0 C 99 % 1009,4 hPa 0,0 l/m 0 min 2 min 97 W/m 3,2 km/h (1 Bft) 97,87 %
18.08.2019 11:32 15,6 C 15,0 C 15,0 C 99 % 1009,4 hPa 0,0 l/m 0 min 2 min 77 W/m 3,2 km/h (1 Bft) 97,87 %
18.08.2019 11:34 15,7 C 15,0 C 15,0 C 99 % 1009,5 hPa 0,0 l/m 0 min 2 min 58 W/m 3,2 km/h (1 Bft) 95,65 %
18.08.2019 11:36 15,7 C 15,0 C 14,4 C 99 % 1009,6 hPa 0,0 l/m 0 min 2 min 44 W/m 0,0 km/h (0 Bft) 97,87 %
18.08.2019 11:38 15,7 C 14,4 C 14,4 C 99 % 1009,6 hPa 0,0 l/m 0 min 2 min 43 W/m 3,2 km/h (1 Bft) 97,87 %
18.08.2019 11:40 15,7 C 14,4 C 14,4 C 99 % 1009,7 hPa 0,2 l/m 0 min 2 min 37 W/m 0,0 km/h (0 Bft) 97,87 %
18.08.2019 11:42 15,7 C 14,4 C 14,4 C 99 % 1009,7 hPa 0,0 l/m 0 min 2 min 40 W/m 0,0 km/h (0 Bft) 97,87 %
18.08.2019 11:44 15,7 C 15,0 C 14,4 C 99 % 1009,6 hPa 0,0 l/m 0 min 2 min 51 W/m 0,0 km/h (0 Bft) 97,87 %
18.08.2019 11:46 15,7 C 15,0 C 14,4 C 99 % 1009,7 hPa 0,0 l/m 0 min 2 min 53 W/m 3,2 km/h (1 Bft) 95,65 %
18.08.2019 11:48 15,7 C 15,0 C 14,4 C 99 % 1009,7 hPa 0,2 l/m 0 min 2 min 50 W/m 0,0 km/h (0 Bft) 97,87 %
18.08.2019 11:50 15,7 C 15,0 C 14,4 C 99 % 1009,7 hPa 0,0 l/m 0 min 2 min 51 W/m 3,2 km/h (1 Bft) 97,87 %
18.08.2019 11:52 15,7 C 14,4 C 14,4 C 99 % 1009,8 hPa 0,2 l/m 0 min 2 min 37 W/m 3,2 km/h (1 Bft) 97,87 %
18.08.2019 11:54 15,7 C 14,4 C 14,4 C 99 % 1009,8 hPa 0,0 l/m 0 min 2 min 43 W/m 6,4 km/h (2 Bft) 100,00 %
18.08.2019 11:56 15,7 C 14,4 C 14,4 C 99 % 1009,7 hPa 0,2 l/m 0 min 2 min 56 W/m 6,4 km/h (2 Bft) 97,87 %
18.08.2019 11:58 15,7 C 15,0 C 14,4 C 99 % 1009,7 hPa 0,0 l/m 0 min 2 min 76 W/m 0,0 km/h (0 Bft) 100,00 %
18.08.2019 12:00 15,7 C 15,0 C 15,0 C 99 % 1009,7 hPa 0,2 l/m 0 min 2 min 83 W/m 0,0 km/h (0 Bft) 100,00 %
18.08.2019 12:02 15,7 C 15,0 C 15,0 C 99 % 1009,7 hPa 0,0 l/m 0 min 2 min 66 W/m 0,0 km/h (0 Bft) 97,14 %
18.08.2019 12:04 15,7 C 15,0 C 15,0 C 99 % 1009,8 hPa 0,2 l/m 0 min 2 min 72 W/m 0,0 km/h (0 Bft) 100,00 %
18.08.2019 12:08 15,8 C 15,6 C 15,0 C 99 % 1009,7 hPa 0,0 l/m 0 min 4 min 99 W/m 3,2 km/h (1 Bft) 96,81 %
18.08.2019 12:10 15,8 C 15,6 C 15,0 C 99 % 1009,7 hPa 0,2 l/m 0 min 2 min 117 W/m 0,0 km/h (0 Bft) 100,00 %
18.08.2019 12:12 15,8 C 15,6 C 15,0 C 99 % 1009,7 hPa 0,0 l/m 0 min 2 min 124 W/m 0,0 km/h (0 Bft) 94,44 %
18.08.2019 12:14 15,9 C 15,6 C 15,0 C 99 % 1009,8 hPa 0,0 l/m 0 min 2 min 108 W/m 3,2 km/h (1 Bft) 100,00 %
18.08.2019 12:16 15,9 C 15,6 C 15,0 C 99 % 1009,9 hPa 0,0 l/m 0 min 2 min 70 W/m 0,0 km/h (0 Bft) 100,00 %
18.08.2019 12:18 15,9 C 15,0 C 15,0 C 99 % 1010,0 hPa 0,0 l/m 0 min 2 min 44 W/m 6,4 km/h (2 Bft) 97,87 %
18.08.2019 12:20 15,9 C 15,0 C 15,0 C 99 % 1010,1 hPa 0,0 l/m 0 min 2 min 39 W/m 6,4 km/h (2 Bft) 100,00 %
18.08.2019 12:22 15,9 C 15,0 C 15,0 C 99 % 1009,9 hPa 0,2 l/m 0 min 2 min 58 W/m 3,2 km/h (1 Bft) 97,87 %
18.08.2019 12:24 15,9 C 15,6 C 15,0 C 99 % 1009,8 hPa 0,0 l/m 0 min 2 min 93 W/m 0,0 km/h (0 Bft) 97,87 %
18.08.2019 12:26 15,9 C 15,6 C 15,0 C 99 % 1009,7 hPa 0,0 l/m 0 min 2 min 105 W/m 3,2 km/h (1 Bft) 100,00 %
18.08.2019 12:28 16,0 C 15,6 C 15,0 C 99 % 1009,6 hPa 0,2 l/m 0 min 2 min 111 W/m 3,2 km/h (1 Bft) 100,00 %
18.08.2019 12:30 16,0 C 15,6 C 15,0 C 99 % 1009,5 hPa 0,0 l/m 0 min 2 min 121 W/m 0,0 km/h (0 Bft) 97,87 %
18.08.2019 12:32 16,0 C 15,0 C 14,4 C 99 % 1009,5 hPa 0,0 l/m 0 min 2 min 122 W/m 3,2 km/h (1 Bft) 97,87 %
18.08.2019 12:34 16,0 C 15,0 C 15,0 C 99 % 1009,5 hPa 0,2 l/m 0 min 2 min 127 W/m 3,2 km/h (1 Bft) 97,87 %
18.08.2019 12:36 15,9 C 15,0 C 15,0 C 99 % 1009,6 hPa 0,0 l/m 0 min 2 min 135 W/m 3,2 km/h (1 Bft) 98,28 %
18.08.2019 12:38 15,9 C 15,6 C 15,0 C 99 % 1009,6 hPa 0,0 l/m 0 min 2 min 135 W/m 3,2 km/h (1 Bft) 97,14 %
18.08.2019 12:40 16,0 C 15,6 C 15,0 C 99 % 1009,6 hPa 0,0 l/m 0 min 2 min 117 W/m 0,0 km/h (0 Bft) 97,87 %
18.08.2019 12:42 16,0 C 15,0 C 15,0 C 99 % 1009,7 hPa 0,0 l/m 0 min 2 min 95 W/m 3,2 km/h (1 Bft) 97,87 %
18.08.2019 12:44 16,0 C 15,0 C 15,0 C 99 % 1009,7 hPa 0,0 l/m 0 min 2 min 83 W/m 6,4 km/h (2 Bft) 95,74 %
18.08.2019 12:46 16,0 C 15,0 C 15,0 C 99 % 1009,8 hPa 0,0 l/m 0 min 2 min 74 W/m 0,0 km/h (0 Bft) 93,62 %
18.08.2019 12:48 15,9 C 15,0 C 15,0 C 99 % 1009,8 hPa 0,0 l/m 0 min 2 min 75 W/m 3,2 km/h (1 Bft) 97,87 %
18.08.2019 12:50 15,9 C 15,0 C 15,0 C 99 % 1009,9 hPa 0,2 l/m 0 min 2 min 77 W/m 0,0 km/h (0 Bft) 97,83 %
18.08.2019 12:52 15,9 C 15,0 C 14,4 C 99 % 1009,7 hPa 0,0 l/m 0 min 2 min 94 W/m 3,2 km/h (1 Bft) 95,74 %
18.08.2019 12:54 15,9 C 15,0 C 15,0 C 99 % 1009,5 hPa 0,2 l/m 0 min 2 min 132 W/m 6,4 km/h (2 Bft) 97,87 %
18.08.2019 12:56 15,9 C 15,0 C 15,0 C 99 % 1009,6 hPa 0,0 l/m 0 min 2 min 106 W/m 3,2 km/h (1 Bft) 91,49 %
18.08.2019 12:58 15,9 C 15,0 C 15,0 C 99 % 1009,7 hPa 0,2 l/m 0 min 2 min 73 W/m 6,4 km/h (2 Bft) 95,74 %
18.08.2019 13:00 15,9 C 15,0 C 15,0 C 99 % 1009,9 hPa 0,0 l/m 0 min 2 min 63 W/m 3,2 km/h (1 Bft) 95,65 %
18.08.2019 13:02 15,9 C 15,0 C 15,0 C 99 % 1009,9 hPa 0,0 l/m 0 min 2 min 69 W/m 0,0 km/h (0 Bft) 93,62 %
18.08.2019 13:04 15,9 C 15,0 C 15,0 C 99 % 1010,0 hPa 0,0 l/m 0 min 2 min 85 W/m 0,0 km/h (0 Bft) 94,92 %
18.08.2019 13:06 15,9 C 15,0 C 15,0 C 99 % 1010,1 hPa 0,0 l/m 0 min 2 min 90 W/m 0,0 km/h (0 Bft) 95,74 %
18.08.2019 13:08 15,9 C 15,0 C 14,4 C 99 % 1010,1 hPa 0,0 l/m 0 min 0 min 75 W/m 3,2 km/h (1 Bft) 95,65 %
18.08.2019 13:10 15,9 C 15,0 C 14,4 C 99 % 1010,3 hPa 0,0 l/m 0 min 0 min 85 W/m 3,2 km/h (1 Bft) 94,44 %
18.08.2019 13:12 15,9 C 15,0 C 14,4 C 99 % 1010,3 hPa 0,0 l/m 0 min 0 min 84 W/m 0,0 km/h (0 Bft) 93,48 %
18.08.2019 13:14 15,9 C 15,0 C 14,4 C 99 % 1010,1 hPa 0,0 l/m 0 min 2 min 72 W/m 0,0 km/h (0 Bft) 95,74 %
18.08.2019 13:16 15,9 C 15,0 C 15,0 C 99 % 1010,1 hPa 0,0 l/m 0 min 2 min 62 W/m 0,0 km/h (0 Bft) 95,74 %
18.08.2019 13:18 15,9 C 15,0 C 15,0 C 99 % 1010,2 hPa 0,0 l/m 0 min 2 min 61 W/m 0,0 km/h (0 Bft) 95,74 %
18.08.2019 13:20 15,9 C 15,6 C 15,0 C 99 % 1009,9 hPa 0,2 l/m 0 min 2 min 77 W/m 0,0 km/h (0 Bft) 94,83 %
18.08.2019 13:22 15,9 C 15,6 C 15,0 C 99 % 1009,8 hPa 0,0 l/m 0 min 2 min 96 W/m 0,0 km/h (0 Bft) 97,22 %
18.08.2019 13:24 15,9 C 15,6 C 15,0 C 99 % 1009,9 hPa 0,2 l/m 0 min 2 min 138 W/m 0,0 km/h (0 Bft) 93,48 %
18.08.2019 13:26 15,9 C 15,6 C 15,0 C 99 % 1009,8 hPa 0,0 l/m 0 min 2 min 183 W/m 0,0 km/h (0 Bft) 95,74 %
18.08.2019 13:28 15,9 C 16,1 C 15,0 C 99 % 1009,9 hPa 0,0 l/m 0 min 2 min 228 W/m 0,0 km/h (0 Bft) 97,87 %
18.08.2019 13:30 16,0 C 16,7 C 15,6 C 99 % 1010,0 hPa 0,0 l/m 0 min 2 min 244 W/m 0,0 km/h (0 Bft) 97,87 %
18.08.2019 13:32 16,1 C 16,7 C 15,6 C 99 % 1010,0 hPa 0,0 l/m 0 min 0 min 279 W/m 0,0 km/h (0 Bft) 97,87 %
18.08.2019 13:34 16,2 C 16,7 C 15,6 C 99 % 1009,8 hPa 0,0 l/m 0 min 0 min 315 W/m 0,0 km/h (0 Bft) 95,74 %
18.08.2019 13:36 16,2 C 17,2 C 16,1 C 99 % 1009,8 hPa 0,0 l/m 0 min 0 min 312 W/m 0,0 km/h (0 Bft) 96,55 %
18.08.2019 13:38 16,3 C 17,8 C 16,1 C 99 % 1010,0 hPa 0,0 l/m 0 min 0 min 330 W/m 3,2 km/h (1 Bft) 100,00 %
18.08.2019 13:40 16,3 C 17,2 C 15,6 C 99 % 1010,2 hPa 0,0 l/m 0 min 0 min 324 W/m 3,2 km/h (1 Bft) 95,74 %
18.08.2019 13:42 16,3 C 17,8 C 16,1 C 99 % 1010,4 hPa 0,0 l/m 0 min 0 min 315 W/m 0,0 km/h (0 Bft) 100,00 %
18.08.2019 13:44 16,4 C 17,8 C 16,7 C 99 % 1010,4 hPa 0,0 l/m 0 min 0 min 308 W/m 3,2 km/h (1 Bft) 100,00 %
18.08.2019 13:46 16,4 C 17,8 C 16,7 C 99 % 1010,5 hPa 0,0 l/m 0 min 0 min 262 W/m 3,2 km/h (1 Bft) 100,00 %
18.08.2019 13:48 16,5 C 17,2 C 16,1 C 99 % 1010,5 hPa 0,0 l/m 0 min 0 min 198 W/m 3,2 km/h (1 Bft) 97,83 %
18.08.2019 13:50 16,6 C 17,2 C 16,1 C 99 % 1010,7 hPa 0,0 l/m 0 min 0 min 156 W/m 6,4 km/h (2 Bft) 100,00 %
18.08.2019 13:52 16,6 C 17,2 C 16,1 C 99 % 1010,9 hPa 0,0 l/m 0 min 0 min 156 W/m 6,4 km/h (2 Bft) 97,87 %
18.08.2019 13:54 16,7 C 16,7 C 16,1 C 99 % 1011,1 hPa 0,0 l/m 0 min 2 min 162 W/m 9,7 km/h (2 Bft) 100,00 %
18.08.2019 13:56 16,7 C 16,7 C 16,1 C 99 % 1011,0 hPa 0,0 l/m 0 min 2 min 181 W/m 6,4 km/h (2 Bft) 95,74 %
18.08.2019 13:58 16,8 C 17,2 C 16,7 C 99 % 1010,9 hPa 0,0 l/m 0 min 2 min 225 W/m 6,4 km/h (2 Bft) 100,00 %
18.08.2019 14:00 16,8 C 16,7 C 16,1 C 99 % 1010,7 hPa 0,0 l/m 0 min 2 min 248 W/m 9,7 km/h (2 Bft) 100,00 %
18.08.2019 14:02 16,9 C 17,2 C 16,1 C 99 % 1010,6 hPa 0,0 l/m 0 min 2 min 276 W/m 9,7 km/h (2 Bft) 100,00 %
18.08.2019 14:04 16,9 C 17,8 C 16,7 C 99 % 1010,8 hPa 0,0 l/m 0 min 0 min 312 W/m 3,2 km/h (1 Bft) 98,31 %
18.08.2019 14:06 17,0 C 18,3 C 16,7 C 99 % 1010,8 hPa 0,0 l/m 2 min 0 min 412 W/m 3,2 km/h (1 Bft) 100,00 %
18.08.2019 14:08 17,1 C 18,3 C 17,2 C 99 % 1010,8 hPa 0,0 l/m 2 min 0 min 480 W/m 3,2 km/h (1 Bft) 100,00 %
18.08.2019 14:10 17,2 C 18,3 C 17,8 C 99 % 1010,8 hPa 0,0 l/m 2 min 0 min 476 W/m 3,2 km/h (1 Bft) 97,87 %
18.08.2019 14:12 17,3 C 18,3 C 17,2 C 99 % 1010,8 hPa 0,0 l/m 0 min 0 min 364 W/m 3,2 km/h (1 Bft) 97,83 %
18.08.2019 14:14 17,4 C 18,3 C 17,2 C 99 % 1010,8 hPa 0,0 l/m 0 min 0 min 288 W/m 6,4 km/h (2 Bft) 96,61 %
18.08.2019 14:16 17,4 C 18,3 C 17,2 C 99 % 1010,8 hPa 0,0 l/m 0 min 0 min 300 W/m 6,4 km/h (2 Bft) 94,29 %
18.08.2019 14:18 17,6 C 17,8 C 17,2 C 99 % 1010,8 hPa 0,0 l/m 0 min 0 min 241 W/m 9,7 km/h (2 Bft) 97,87 %
18.08.2019 14:20 17,6 C 18,3 C 17,2 C 99 % 1011,0 hPa 0,0 l/m 0 min 0 min 233 W/m 12,9 km/h (3 Bft) 98,28 %
18.08.2019 14:22 17,6 C 17,8 C 16,7 C 99 % 1011,1 hPa 0,0 l/m 0 min 0 min 210 W/m 16,1 km/h (3 Bft) 91,43 %
18.08.2019 14:24 17,7 C 17,8 C 16,7 C 99 % 1011,0 hPa 0,0 l/m 0 min 0 min 252 W/m 16,1 km/h (3 Bft) 97,87 %
18.08.2019 14:26 17,7 C 18,3 C 17,2 C 99 % 1010,9 hPa 0,0 l/m 0 min 0 min 274 W/m 16,1 km/h (3 Bft) 95,74 %
18.08.2019 14:28 17,7 C 18,3 C 17,2 C 99 % 1011,0 hPa 0,0 l/m 0 min 0 min 290 W/m 9,7 km/h (2 Bft) 97,87 %
18.08.2019 14:30 17,8 C 18,3 C 17,2 C 99 % 1011,0 hPa 0,0 l/m 0 min 0 min 298 W/m 9,7 km/h (2 Bft) 97,87 %
18.08.2019 14:32 17,8 C 18,9 C 17,2 C 99 % 1011,1 hPa 0,0 l/m 0 min 2 min 265 W/m 6,4 km/h (2 Bft) 97,87 %
18.08.2019 14:34 17,9 C 17,8 C 17,2 C 99 % 1011,3 hPa 0,0 l/m 0 min 0 min 188 W/m 22,5 km/h (4 Bft) 97,83 %
18.08.2019 14:36 17,8 C 17,8 C 16,7 C 99 % 1011,4 hPa 0,0 l/m 0 min 0 min 163 W/m 19,3 km/h (3 Bft) 98,31 %
18.08.2019 14:38 17,8 C 17,8 C 16,7 C 99 % 1011,4 hPa 0,0 l/m 0 min 0 min 145 W/m 16,1 km/h (3 Bft) 97,87 %
18.08.2019 14:40 17,8 C 17,8 C 16,7 C 99 % 1011,5 hPa 0,0 l/m 0 min 0 min 139 W/m 3,2 km/h (1 Bft) 97,14 %
18.08.2019 14:42 17,8 C 18,3 C 16,7 C 99 % 1011,5 hPa 0,0 l/m 0 min 0 min 151 W/m 0,0 km/h (0 Bft) 97,87 %
18.08.2019 14:44 17,9 C 18,3 C 17,2 C 99 % 1011,5 hPa 0,0 l/m 0 min 0 min 159 W/m 0,0 km/h (0 Bft) 95,74 %
18.08.2019 14:46 17,9 C 18,9 C 17,2 C 99 % 1011,4 hPa 0,0 l/m 0 min 0 min 300 W/m 0,0 km/h (0 Bft) 97,83 %
18.08.2019 14:48 17,9 C 19,4 C 17,8 C 99 % 1011,4 hPa 0,0 l/m 2 min 0 min 406 W/m 9,7 km/h (2 Bft) 97,87 %
18.08.2019 14:50 18,1 C 20,0 C 17,8 C 99 % 1011,2 hPa 0,0 l/m 0 min 0 min 358 W/m 0,0 km/h (0 Bft) 97,87 %
18.08.2019 14:52 18,2 C 20,0 C 17,8 C 99 % 1011,0 hPa 0,0 l/m 0 min 0 min 319 W/m 9,7 km/h (2 Bft) 97,87 %
18.08.2019 14:54 18,2 C 19,4 C 17,8 C 99 % 1011,0 hPa 0,0 l/m 0 min 0 min 314 W/m 12,9 km/h (3 Bft) 97,87 %
18.08.2019 14:56 18,2 C 20,0 C 17,2 C 99 % 1010,9 hPa 0,0 l/m 0 min 0 min 318 W/m 12,9 km/h (3 Bft) 96,55 %
18.08.2019 14:58 18,2 C 20,0 C 17,8 C 99 % 1010,9 hPa 0,0 l/m 0 min 0 min 348 W/m 9,7 km/h (2 Bft) 100,00 %
18.08.2019 15:00 18,2 C 20,6 C 17,8 C 99 % 1011,1 hPa 0,0 l/m 2 min 0 min 413 W/m 12,9 km/h (3 Bft) 100,00 %
18.08.2019 15:02 18,2 C 20,6 C 17,8 C 99 % 1011,3 hPa 0,0 l/m 0 min 0 min 362 W/m 22,5 km/h (4 Bft) 100,00 %
18.08.2019 15:04 18,3 C 20,6 C 17,8 C 99 % 1011,3 hPa 0,0 l/m 2 min 0 min 363 W/m 9,7 km/h (2 Bft) 100,00 %
18.08.2019 15:06 18,3 C 20,0 C 17,2 C 99 % 1011,2 hPa 0,0 l/m 0 min 0 min 324 W/m 9,7 km/h (2 Bft) 100,00 %
18.08.2019 15:08 18,3 C 20,0 C 17,2 C 99 % 1011,4 hPa 0,0 l/m 0 min 0 min 311 W/m 16,1 km/h (3 Bft) 100,00 %
18.08.2019 15:10 18,3 C 20,0 C 17,2 C 99 % 1011,5 hPa 0,0 l/m 0 min 0 min 244 W/m 9,7 km/h (2 Bft) 100,00 %
18.08.2019 15:12 18,3 C 19,4 C 17,2 C 99 % 1011,6 hPa 0,0 l/m 0 min 0 min 193 W/m 9,7 km/h (2 Bft) 100,00 %
18.08.2019 15:14 18,3 C 19,4 C 17,2 C 99 % 1011,6 hPa 0,0 l/m 0 min 0 min 206 W/m 12,9 km/h (3 Bft) 100,00 %
18.08.2019 15:16 18,3 C 19,4 C 17,2 C 99 % 1011,5 hPa 0,0 l/m 0 min 0 min 169 W/m 6,4 km/h (2 Bft) 100,00 %
18.08.2019 15:18 18,4 C 19,4 C 17,2 C 99 % 1011,6 hPa 0,0 l/m 0 min 0 min 137 W/m 9,7 km/h (2 Bft) 100,00 %
18.08.2019 15:20 18,4 C 18,9 C 17,2 C 99 % 1011,7 hPa 0,0 l/m 0 min 0 min 126 W/m 9,7 km/h (2 Bft) 100,00 %
18.08.2019 15:22 18,4 C 18,9 C 17,2 C 98 % 1011,8 hPa 0,0 l/m 0 min 0 min 157 W/m 9,7 km/h (2 Bft) 100,00 %
18.08.2019 15:24 18,4 C 18,9 C 17,2 C 98 % 1011,7 hPa 0,0 l/m 0 min 0 min 138 W/m 9,7 km/h (2 Bft) 100,00 %
18.08.2019 15:26 18,3 C 18,9 C 16,7 C 98 % 1011,8 hPa 0,0 l/m 0 min 0 min 156 W/m 9,7 km/h (2 Bft) 95,74 %
18.08.2019 15:28 18,3 C 18,9 C 16,7 C 98 % 1011,9 hPa 0,0 l/m 0 min 0 min 171 W/m 9,7 km/h (2 Bft) 96,55 %
18.08.2019 15:30 18,3 C 18,3 C 16,7 C 98 % 1012,0 hPa 0,0 l/m 0 min 0 min 131 W/m 9,7 km/h (2 Bft) 97,22 %
18.08.2019 15:32 18,3 C 18,3 C 16,7 C 98 % 1011,9 hPa 0,0 l/m 0 min 0 min 105 W/m 6,4 km/h (2 Bft) 97,83 %
18.08.2019 15:34 18,3 C 18,3 C 16,7 C 98 % 1011,9 hPa 0,0 l/m 0 min 0 min 128 W/m 12,9 km/h (3 Bft) 97,87 %
18.08.2019 15:36 18,3 C 18,3 C 16,7 C 98 % 1012,3 hPa 0,0 l/m 0 min 0 min 115 W/m 9,7 km/h (2 Bft) 96,61 %
18.08.2019 15:38 18,3 C 18,3 C 16,7 C 97 % 1012,2 hPa 0,0 l/m 0 min 0 min 92 W/m 12,9 km/h (3 Bft) 94,29 %
18.08.2019 15:40 18,3 C 18,3 C 16,7 C 97 % 1012,1 hPa 0,0 l/m 0 min 0 min 100 W/m 6,4 km/h (2 Bft) 97,87 %
18.08.2019 15:42 18,3 C 18,3 C 16,7 C 97 % 1012,3 hPa 0,0 l/m 0 min 0 min 108 W/m 12,9 km/h (3 Bft) 95,74 %
18.08.2019 15:44 18,2 C 18,3 C 16,7 C 97 % 1012,4 hPa 0,0 l/m 0 min 0 min 104 W/m 9,7 km/h (2 Bft) 95,65 %
18.08.2019 15:46 18,2 C 18,3 C 16,7 C 97 % 1012,4 hPa 0,0 l/m 0 min 0 min 105 W/m 12,9 km/h (3 Bft) 95,74 %
18.08.2019 15:48 18,2 C 18,3 C 16,7 C 97 % 1012,5 hPa 0,0 l/m 0 min 0 min 92 W/m 6,4 km/h (2 Bft) 95,74 %
18.08.2019 15:50 18,2 C 17,8 C 16,7 C 97 % 1012,5 hPa 0,0 l/m 0 min 0 min 93 W/m 16,1 km/h (3 Bft) 97,87 %
18.08.2019 15:52 18,2 C 17,8 C 16,7 C 97 % 1012,5 hPa 0,0 l/m 0 min 0 min 94 W/m 19,3 km/h (3 Bft) 97,87 %
18.08.2019 15:54 18,2 C 17,8 C 16,7 C 97 % 1012,5 hPa 0,0 l/m 0 min 0 min 79 W/m 6,4 km/h (2 Bft) 94,83 %
18.08.2019 15:56 18,2 C 17,8 C 16,7 C 96 % 1012,6 hPa 0,0 l/m 0 min 0 min 83 W/m 3,2 km/h (1 Bft) 97,14 %
18.08.2019 15:58 18,2 C 17,8 C 16,7 C 96 % 1012,7 hPa 0,0 l/m 0 min 0 min 74 W/m 9,7 km/h (2 Bft) 95,74 %
18.08.2019 16:00 18,2 C 17,8 C 16,7 C 96 % 1012,7 hPa 0,0 l/m 0 min 0 min 68 W/m 9,7 km/h (2 Bft) 93,62 %
18.08.2019 16:02 18,2 C 17,8 C 16,7 C 96 % 1012,7 hPa 0,0 l/m 0 min 0 min 80 W/m 9,7 km/h (2 Bft) 95,74 %
18.08.2019 16:04 18,1 C 17,8 C 16,7 C 96 % 1012,9 hPa 0,0 l/m 0 min 0 min 78 W/m 3,2 km/h (1 Bft) 95,74 %
18.08.2019 16:06 18,1 C 17,8 C 16,7 C 96 % 1012,9 hPa 0,0 l/m 0 min 0 min 76 W/m 9,7 km/h (2 Bft) 98,28 %
18.08.2019 16:08 18,1 C 17,8 C 16,7 C 96 % 1012,8 hPa 0,0 l/m 0 min 0 min 78 W/m 12,9 km/h (3 Bft) 91,43 %
18.08.2019 16:10 18,1 C 17,8 C 16,7 C 96 % 1012,9 hPa 0,0 l/m 0 min 0 min 111 W/m 12,9 km/h (3 Bft) 95,74 %
18.08.2019 16:12 18,1 C 17,8 C 16,7 C 96 % 1013,0 hPa 0,0 l/m 0 min 0 min 118 W/m 6,4 km/h (2 Bft) 97,87 %
18.08.2019 16:14 18,1 C 17,8 C 17,2 C 96 % 1013,0 hPa 0,0 l/m 0 min 0 min 111 W/m 9,7 km/h (2 Bft) 97,87 %
18.08.2019 16:16 18,1 C 18,3 C 16,7 C 96 % 1013,0 hPa 0,0 l/m 0 min 0 min 112 W/m 6,4 km/h (2 Bft) 95,74 %
18.08.2019 16:18 18,1 C 18,3 C 17,2 C 96 % 1013,1 hPa 0,0 l/m 0 min 0 min 130 W/m 6,4 km/h (2 Bft) 97,87 %
18.08.2019 16:20 18,1 C 18,3 C 17,2 C 96 % 1013,1 hPa 0,0 l/m 0 min 0 min 140 W/m 6,4 km/h (2 Bft) 97,83 %
18.08.2019 16:22 18,1 C 18,3 C 17,2 C 96 % 1013,1 hPa 0,0 l/m 0 min 0 min 144 W/m 6,4 km/h (2 Bft) 97,87 %
18.08.2019 16:24 18,1 C 18,3 C 17,2 C 96 % 1013,1 hPa 0,0 l/m 0 min 0 min 185 W/m 9,7 km/h (2 Bft) 97,87 %
18.08.2019 16:26 18,1 C 18,9 C 17,2 C 95 % 1013,1 hPa 0,0 l/m 0 min 0 min 195 W/m 6,4 km/h (2 Bft) 95,74 %
18.08.2019 16:28 18,1 C 19,4 C 17,8 C 95 % 1013,2 hPa 0,0 l/m 0 min 0 min 256 W/m 6,4 km/h (2 Bft) 98,28 %
18.08.2019 16:30 18,2 C 19,4 C 17,8 C 95 % 1013,2 hPa 0,0 l/m 0 min 0 min 291 W/m 9,7 km/h (2 Bft) 97,87 %
18.08.2019 16:32 18,2 C 20,0 C 17,8 C 95 % 1013,2 hPa 0,0 l/m 0 min 0 min 294 W/m 6,4 km/h (2 Bft) 97,14 %
18.08.2019 16:34 18,3 C 20,0 C 18,3 C 95 % 1013,3 hPa 0,0 l/m 0 min 0 min 241 W/m 16,1 km/h (3 Bft) 97,87 %
18.08.2019 16:36 18,3 C 20,0 C 17,8 C 96 % 1013,3 hPa 0,0 l/m 0 min 0 min 212 W/m 6,4 km/h (2 Bft) 98,31 %
18.08.2019 16:38 18,4 C 19,4 C 17,8 C 96 % 1013,3 hPa 0,0 l/m 0 min 0 min 180 W/m 9,7 km/h (2 Bft) 97,14 %
18.08.2019 16:40 18,4 C 18,9 C 17,8 C 95 % 1013,4 hPa 0,0 l/m 0 min 0 min 131 W/m 6,4 km/h (2 Bft) 97,87 %
18.08.2019 16:42 18,4 C 18,9 C 17,8 C 95 % 1013,4 hPa 0,0 l/m 0 min 0 min 163 W/m 6,4 km/h (2 Bft) 97,83 %
18.08.2019 16:44 18,4 C 19,4 C 17,8 C 95 % 1013,4 hPa 0,0 l/m 0 min 0 min 233 W/m 9,7 km/h (2 Bft) 95,74 %
18.08.2019 16:46 18,4 C 19,4 C 17,8 C 95 % 1013,3 hPa 0,0 l/m 0 min 0 min 275 W/m 16,1 km/h (3 Bft) 97,87 %
18.08.2019 16:48 18,5 C 20,0 C 18,3 C 95 % 1013,4 hPa 0,0 l/m 2 min 0 min 312 W/m 9,7 km/h (2 Bft) 100,00 %
18.08.2019 16:50 18,5 C 20,6 C 18,3 C 95 % 1013,4 hPa 0,0 l/m 2 min 0 min 337 W/m 9,7 km/h (2 Bft) 97,87 %
18.08.2019 16:52 18,6 C 20,0 C 18,3 C 95 % 1013,4 hPa 0,0 l/m 2 min 0 min 297 W/m 9,7 km/h (2 Bft) 100,00 %
18.08.2019 16:54 18,6 C 20,0 C 18,3 C 95 % 1013,5 hPa 0,0 l/m 2 min 0 min 284 W/m 16,1 km/h (3 Bft) 100,00 %
18.08.2019 16:56 18,6 C 20,0 C 18,3 C 95 % 1013,5 hPa 0,0 l/m 0 min 0 min 269 W/m 12,9 km/h (3 Bft) 97,87 %
18.08.2019 16:58 18,7 C 20,0 C 18,3 C 94 % 1013,5 hPa 0,0 l/m 2 min 0 min 298 W/m 9,7 km/h (2 Bft) 100,00 %
18.08.2019 17:00 18,7 C 20,0 C 18,3 C 94 % 1013,5 hPa 0,0 l/m 2 min 0 min 311 W/m 16,1 km/h (3 Bft) 100,00 %
18.08.2019 17:02 18,7 C 20,0 C 18,3 C 94 % 1013,7 hPa 0,0 l/m 0 min 0 min 222 W/m 16,1 km/h (3 Bft) 100,00 %
18.08.2019 17:04 18,7 C 19,4 C 17,8 C 94 % 1013,7 hPa 0,0 l/m 0 min 0 min 148 W/m 9,7 km/h (2 Bft) 97,22 %
18.08.2019 17:06 18,7 C 18,9 C 17,8 C 93 % 1013,8 hPa 0,0 l/m 0 min 0 min 104 W/m 9,7 km/h (2 Bft) 98,28 %
18.08.2019 17:08 18,7 C 18,9 C 17,2 C 93 % 1013,8 hPa 0,0 l/m 0 min 0 min 90 W/m 6,4 km/h (2 Bft) 97,14 %
18.08.2019 17:10 18,7 C 18,9 C 17,2 C 93 % 1013,7 hPa 0,0 l/m 0 min 0 min 126 W/m 6,4 km/h (2 Bft) 97,87 %
18.08.2019 17:12 18,8 C 18,9 C 17,2 C 93 % 1013,7 hPa 0,0 l/m 0 min 0 min 155 W/m 6,4 km/h (2 Bft) 97,87 %
18.08.2019 17:14 18,8 C 18,9 C 17,2 C 93 % 1013,7 hPa 0,0 l/m 0 min 0 min 129 W/m 6,4 km/h (2 Bft) 97,87 %
18.08.2019 17:16 18,8 C 18,9 C 17,2 C 93 % 1013,7 hPa 0,0 l/m 0 min 0 min 104 W/m 6,4 km/h (2 Bft) 97,83 %
18.08.2019 17:18 18,8 C 18,9 C 17,2 C 93 % 1013,8 hPa 0,0 l/m 0 min 0 min 113 W/m 19,3 km/h (3 Bft) 97,87 %
18.08.2019 17:20 18,8 C 18,9 C 17,2 C 93 % 1013,8 hPa 0,0 l/m 0 min 0 min 126 W/m 6,4 km/h (2 Bft) 97,87 %
18.08.2019 17:22 18,8 C 18,9 C 17,2 C 92 % 1013,7 hPa 0,0 l/m 0 min 0 min 138 W/m 6,4 km/h (2 Bft) 97,87 %
18.08.2019 17:24 18,8 C 18,9 C 17,8 C 93 % 1013,8 hPa 0,0 l/m 0 min 0 min 164 W/m 12,9 km/h (3 Bft) 97,87 %
18.08.2019 17:26 18,8 C 19,4 C 17,8 C 92 % 1013,7 hPa 0,0 l/m 0 min 0 min 208 W/m 6,4 km/h (2 Bft) 97,87 %
18.08.2019 17:28 18,8 C 19,4 C 17,8 C 92 % 1013,7 hPa 0,0 l/m 2 min 0 min 255 W/m 12,9 km/h (3 Bft) 97,83 %
18.08.2019 17:30 18,8 C 20,0 C 17,8 C 92 % 1013,9 hPa 0,0 l/m 0 min 0 min 242 W/m 6,4 km/h (2 Bft) 97,87 %
18.08.2019 17:32 18,8 C 20,0 C 17,8 C 92 % 1013,9 hPa 0,0 l/m 2 min 0 min 265 W/m 9,7 km/h (2 Bft) 95,74 %
18.08.2019 17:34 18,8 C 20,0 C 17,8 C 92 % 1013,9 hPa 0,0 l/m 2 min 0 min 257 W/m 12,9 km/h (3 Bft) 97,87 %
18.08.2019 17:36 18,9 C 20,6 C 17,8 C 92 % 1013,9 hPa 0,0 l/m 2 min 0 min 289 W/m 9,7 km/h (2 Bft) 96,55 %
18.08.2019 17:38 18,9 C 20,6 C 18,3 C 92 % 1013,9 hPa 0,0 l/m 2 min 0 min 283 W/m 9,7 km/h (2 Bft) 100,00 %
18.08.2019 17:40 18,9 C 21,1 C 18,3 C 92 % 1013,9 hPa 0,0 l/m 2 min 0 min 338 W/m 12,9 km/h (3 Bft) 97,83 %
18.08.2019 17:42 18,9 C 21,1 C 18,3 C 92 % 1013,9 hPa 0,0 l/m 2 min 0 min 298 W/m 9,7 km/h (2 Bft) 97,87 %
18.08.2019 17:44 19,0 C 21,1 C 18,3 C 91 % 1014,0 hPa 0,0 l/m 2 min 0 min 288 W/m 9,7 km/h (2 Bft) 98,31 %
18.08.2019 17:46 19,0 C 21,1 C 18,3 C 91 % 1014,0 hPa 0,0 l/m 2 min 0 min 287 W/m 12,9 km/h (3 Bft) 97,14 %
18.08.2019 17:48 19,1 C 21,1 C 17,8 C 91 % 1013,9 hPa 0,0 l/m 2 min 0 min 300 W/m 9,7 km/h (2 Bft) 95,74 %
18.08.2019 17:50 19,1 C 21,1 C 18,3 C 91 % 1014,0 hPa 0,0 l/m 2 min 0 min 291 W/m 6,4 km/h (2 Bft) 93,62 %
18.08.2019 17:52 19,2 C 21,1 C 18,3 C 91 % 1014,1 hPa 0,0 l/m 2 min 0 min 263 W/m 9,7 km/h (2 Bft) 95,65 %
18.08.2019 17:54 19,2 C 21,1 C 17,8 C 91 % 1014,1 hPa 0,0 l/m 2 min 0 min 290 W/m 12,9 km/h (3 Bft) 95,74 %
18.08.2019 17:56 19,2 C 21,1 C 18,3 C 90 % 1014,1 hPa 0,0 l/m 2 min 0 min 253 W/m 12,9 km/h (3 Bft) 97,87 %
18.08.2019 17:58 19,2 C 21,1 C 17,8 C 90 % 1014,1 hPa 0,0 l/m 2 min 0 min 259 W/m 9,7 km/h (2 Bft) 97,87 %
18.08.2019 18:00 19,3 C 21,1 C 18,3 C 90 % 1014,1 hPa 0,0 l/m 2 min 0 min 244 W/m 9,7 km/h (2 Bft) 97,87 %
18.08.2019 18:02 19,3 C 20,6 C 17,8 C 90 % 1014,2 hPa 0,0 l/m 0 min 0 min 179 W/m 6,4 km/h (2 Bft) 95,74 %
18.08.2019 18:04 19,3 C 20,6 C 17,8 C 90 % 1014,2 hPa 0,0 l/m 0 min 0 min 187 W/m 6,4 km/h (2 Bft) 97,83 %
18.08.2019 18:08 19,4 C 20,6 C 17,8 C 90 % 1014,2 hPa 0,0 l/m 4 min 0 min 211 W/m 6,4 km/h (2 Bft) 96,81 %
18.08.2019 18:10 19,4 C 20,6 C 17,8 C 90 % 1014,2 hPa 0,0 l/m 0 min 0 min 181 W/m 6,4 km/h (2 Bft) 97,87 %
18.08.2019 18:12 19,4 C 20,6 C 17,8 C 89 % 1014,2 hPa 0,0 l/m 2 min 0 min 205 W/m 6,4 km/h (2 Bft) 97,87 %
18.08.2019 18:14 19,5 C 20,6 C 17,8 C 89 % 1014,2 hPa 0,0 l/m 2 min 0 min 232 W/m 6,4 km/h (2 Bft) 97,87 %
18.08.2019 18:16 19,5 C 20,6 C 17,8 C 89 % 1014,2 hPa 0,0 l/m 2 min 0 min 191 W/m 3,2 km/h (1 Bft) 97,83 %
18.08.2019 18:18 19,6 C 20,6 C 17,8 C 89 % 1014,3 hPa 0,0 l/m 0 min 0 min 156 W/m 9,7 km/h (2 Bft) 95,74 %
18.08.2019 18:20 19,6 C 20,0 C 17,8 C 89 % 1014,3 hPa 0,0 l/m 0 min 0 min 140 W/m 6,4 km/h (2 Bft) 97,87 %
18.08.2019 18:22 19,6 C 20,0 C 17,8 C 89 % 1014,3 hPa 0,0 l/m 0 min 0 min 130 W/m 6,4 km/h (2 Bft) 93,62 %
18.08.2019 18:24 19,6 C 19,4 C 17,8 C 89 % 1014,3 hPa 0,0 l/m 0 min 0 min 92 W/m 6,4 km/h (2 Bft) 97,87 %
18.08.2019 18:26 19,6 C 20,0 C 18,3 C 89 % 1014,4 hPa 0,0 l/m 0 min 0 min 92 W/m 9,7 km/h (2 Bft) 97,83 %
18.08.2019 18:28 19,6 C 20,0 C 17,8 C 89 % 1014,4 hPa 0,0 l/m 0 min 0 min 163 W/m 6,4 km/h (2 Bft) 95,74 %
18.08.2019 18:30 19,6 C 20,0 C 17,8 C 89 % 1014,5 hPa 0,0 l/m 2 min 0 min 174 W/m 3,2 km/h (1 Bft) 100,00 %
18.08.2019 18:32 19,6 C 20,0 C 17,8 C 89 % 1014,5 hPa 0,0 l/m 0 min 0 min 139 W/m 6,4 km/h (2 Bft) 100,00 %
18.08.2019 18:34 19,6 C 20,0 C 18,3 C 89 % 1014,5 hPa 0,0 l/m 0 min 0 min 136 W/m 9,7 km/h (2 Bft) 100,00 %
18.08.2019 18:36 19,6 C 19,4 C 18,3 C 88 % 1014,5 hPa 0,0 l/m 0 min 0 min 130 W/m 6,4 km/h (2 Bft) 100,00 %
18.08.2019 18:38 19,6 C 19,4 C 18,3 C 88 % 1014,6 hPa 0,0 l/m 0 min 0 min 105 W/m 6,4 km/h (2 Bft) 100,00 %
18.08.2019 18:40 19,6 C 19,4 C 17,8 C 88 % 1014,6 hPa 0,0 l/m 0 min 0 min 87 W/m 6,4 km/h (2 Bft) 100,00 %
18.08.2019 18:42 19,6 C 18,9 C 17,8 C 88 % 1014,6 hPa 0,0 l/m 0 min 0 min 82 W/m 12,9 km/h (3 Bft) 100,00 %
18.08.2019 18:44 19,6 C 18,9 C 17,8 C 88 % 1014,6 hPa 0,0 l/m 0 min 0 min 85 W/m 12,9 km/h (3 Bft) 100,00 %
18.08.2019 18:46 19,5 C 18,9 C 17,8 C 88 % 1014,5 hPa 0,0 l/m 0 min 0 min 92 W/m 6,4 km/h (2 Bft) 100,00 %
18.08.2019 18:48 19,5 C 18,9 C 17,8 C 87 % 1014,5 hPa 0,0 l/m 0 min 0 min 88 W/m 12,9 km/h (3 Bft) 100,00 %
18.08.2019 18:50 19,5 C 18,9 C 17,8 C 87 % 1014,5 hPa 0,0 l/m 0 min 0 min 97 W/m 6,4 km/h (2 Bft) 97,87 %
18.08.2019 18:52 19,4 C 19,4 C 17,8 C 88 % 1014,5 hPa 0,0 l/m 0 min 0 min 112 W/m 6,4 km/h (2 Bft) 95,65 %
18.08.2019 18:54 19,5 C 19,4 C 17,8 C 88 % 1014,4 hPa 0,0 l/m 0 min 0 min 114 W/m 6,4 km/h (2 Bft) 100,00 %
18.08.2019 18:56 19,4 C 19,4 C 17,8 C 88 % 1014,5 hPa 0,0 l/m 0 min 0 min 112 W/m 6,4 km/h (2 Bft) 100,00 %
18.08.2019 18:58 19,4 C 19,4 C 17,8 C 87 % 1014,5 hPa 0,0 l/m 0 min 0 min 116 W/m 12,9 km/h (3 Bft) 100,00 %
18.08.2019 19:00 19,4 C 19,4 C 17,2 C 87 % 1014,4 hPa 0,0 l/m 0 min 0 min 115 W/m 6,4 km/h (2 Bft) 97,87 %
18.08.2019 19:02 19,4 C 19,4 C 17,2 C 87 % 1014,4 hPa 0,0 l/m 0 min 0 min 113 W/m 6,4 km/h (2 Bft) 97,83 %
18.08.2019 19:04 19,4 C 18,9 C 17,8 C 87 % 1014,5 hPa 0,0 l/m 0 min 0 min 106 W/m 9,7 km/h (2 Bft) 100,00 %
18.08.2019 19:06 19,4 C 18,9 C 17,2 C 87 % 1014,5 hPa 0,0 l/m 0 min 0 min 103 W/m 9,7 km/h (2 Bft) 100,00 %
18.08.2019 19:08 19,3 C 18,9 C 17,8 C 87 % 1014,5 hPa 0,0 l/m 0 min 0 min 102 W/m 9,7 km/h (2 Bft) 100,00 %
18.08.2019 19:10 19,3 C 18,9 C 17,8 C 86 % 1014,5 hPa 0,0 l/m 0 min 0 min 97 W/m 9,7 km/h (2 Bft) 97,87 %
18.08.2019 19:12 19,3 C 18,9 C 17,2 C 86 % 1014,6 hPa 0,0 l/m 0 min 0 min 64 W/m 9,7 km/h (2 Bft) 100,00 %
18.08.2019 19:14 19,3 C 18,9 C 17,2 C 86 % 1014,5 hPa 0,0 l/m 0 min 0 min 65 W/m 16,1 km/h (3 Bft) 97,83 %
18.08.2019 19:16 19,3 C 18,9 C 17,2 C 86 % 1014,5 hPa 0,0 l/m 0 min 0 min 65 W/m 6,4 km/h (2 Bft) 95,74 %
18.08.2019 19:18 19,3 C 18,9 C 17,2 C 86 % 1014,5 hPa 0,0 l/m 0 min 0 min 68 W/m 6,4 km/h (2 Bft) 97,87 %
18.08.2019 19:20 19,3 C 19,4 C 17,2 C 86 % 1014,6 hPa 0,0 l/m 0 min 0 min 64 W/m 6,4 km/h (2 Bft) 97,87 %
18.08.2019 19:22 19,3 C 18,9 C 16,7 C 86 % 1014,6 hPa 0,0 l/m 0 min 0 min 66 W/m 3,2 km/h (1 Bft) 97,87 %
18.08.2019 19:24 19,3 C 18,9 C 17,2 C 86 % 1014,6 hPa 0,0 l/m 0 min 0 min 68 W/m 6,4 km/h (2 Bft) 97,87 %
18.08.2019 19:26 19,3 C 18,9 C 17,2 C 86 % 1014,7 hPa 0,0 l/m 0 min 0 min 67 W/m 9,7 km/h (2 Bft) 97,83 %
18.08.2019 19:28 19,3 C 18,9 C 17,8 C 86 % 1014,6 hPa 0,0 l/m 0 min 0 min 69 W/m 6,4 km/h (2 Bft) 97,87 %
18.08.2019 19:30 19,3 C 19,4 C 17,8 C 86 % 1014,6 hPa 0,0 l/m 0 min 0 min 68 W/m 6,4 km/h (2 Bft) 97,87 %
18.08.2019 19:32 19,3 C 19,4 C 17,8 C 86 % 1014,6 hPa 0,0 l/m 2 min 0 min 101 W/m 6,4 km/h (2 Bft) 97,87 %
18.08.2019 19:34 19,3 C 19,4 C 17,2 C 86 % 1014,6 hPa 0,0 l/m 2 min 0 min 104 W/m 3,2 km/h (1 Bft) 97,87 %
18.08.2019 19:36 19,3 C 19,4 C 17,2 C 86 % 1014,7 hPa 0,0 l/m 2 min 0 min 100 W/m 6,4 km/h (2 Bft) 97,83 %
18.08.2019 19:38 19,3 C 19,4 C 17,2 C 86 % 1014,7 hPa 0,0 l/m 2 min 0 min 94 W/m 6,4 km/h (2 Bft) 97,87 %
18.08.2019 19:40 19,4 C 19,4 C 17,2 C 86 % 1014,7 hPa 0,0 l/m 2 min 0 min 87 W/m 3,2 km/h (1 Bft) 97,87 %
18.08.2019 19:42 19,4 C 19,4 C 17,2 C 86 % 1014,6 hPa 0,0 l/m 0 min 0 min 76 W/m 9,7 km/h (2 Bft) 95,74 %
18.08.2019 19:44 19,4 C 18,9 C 17,2 C 86 % 1014,7 hPa 0,0 l/m 0 min 0 min 66 W/m 9,7 km/h (2 Bft) 93,62 %
18.08.2019 19:46 19,4 C 18,9 C 17,8 C 86 % 1014,7 hPa 0,0 l/m 0 min 0 min 59 W/m 16,1 km/h (3 Bft) 97,87 %
18.08.2019 19:48 19,4 C 18,9 C 17,2 C 86 % 1014,7 hPa 0,0 l/m 0 min 0 min 54 W/m 9,7 km/h (2 Bft) 97,83 %
18.08.2019 19:50 19,3 C 18,9 C 17,2 C 86 % 1014,7 hPa 0,0 l/m 0 min 0 min 52 W/m 9,7 km/h (2 Bft) 97,87 %
18.08.2019 19:52 19,3 C 18,9 C 17,2 C 85 % 1014,6 hPa 0,0 l/m 0 min 0 min 46 W/m 9,7 km/h (2 Bft) 97,87 %
18.08.2019 19:53 19,3 C 18,9 C 17,2 C 85 % 1014,7 hPa 0,0 l/m 0 min 0 min 45 W/m 6,4 km/h (2 Bft) 95,74 %
18.08.2019 19:56 19,3 C 18,3 C 16,7 C 85 % 1014,7 hPa 0,0 l/m 0 min 0 min 41 W/m 3,2 km/h (1 Bft) 97,87 %
18.08.2019 19:58 19,3 C 18,3 C 16,7 C 86 % 1014,6 hPa 0,0 l/m 0 min 0 min 37 W/m 6,4 km/h (2 Bft) 95,74 %
18.08.2019 20:00 19,3 C 18,3 C 16,7 C 86 % 1014,6 hPa 0,0 l/m 0 min 0 min 36 W/m 6,4 km/h (2 Bft) 93,48 %
18.08.2019 20:02 19,3 C 18,3 C 16,7 C 86 % 1014,7 hPa 0,0 l/m 0 min 0 min 35 W/m 12,9 km/h (3 Bft) 96,61 %
18.08.2019 20:04 19,3 C 18,3 C 16,7 C 86 % 1014,6 hPa 0,0 l/m 0 min 0 min 36 W/m 9,7 km/h (2 Bft) 94,29 %
18.08.2019 20:06 19,2 C 18,3 C 16,7 C 86 % 1014,7 hPa 0,0 l/m 0 min 0 min 37 W/m 9,7 km/h (2 Bft) 98,31 %
18.08.2019 20:08 19,2 C 18,3 C 16,7 C 86 % 1014,6 hPa 0,0 l/m 0 min 0 min 36 W/m 6,4 km/h (2 Bft) 97,14 %
18.08.2019 20:10 19,2 C 18,3 C 16,7 C 86 % 1014,6 hPa 0,0 l/m 0 min 0 min 35 W/m 6,4 km/h (2 Bft) 98,25 %
18.08.2019 20:12 19,2 C 18,3 C 16,7 C 86 % 1014,7 hPa 0,0 l/m 0 min 0 min 35 W/m 9,7 km/h (2 Bft) 97,87 %
18.08.2019 20:14 19,2 C 18,3 C 16,7 C 86 % 1014,7 hPa 0,0 l/m 0 min 0 min 34 W/m 6,4 km/h (2 Bft) 93,62 %
18.08.2019 20:16 19,1 C 18,3 C 16,7 C 86 % 1014,7 hPa 0,0 l/m 0 min 0 min 33 W/m 6,4 km/h (2 Bft) 91,49 %
18.08.2019 20:18 19,1 C 18,3 C 16,7 C 86 % 1014,7 hPa 0,0 l/m 0 min 0 min 33 W/m 6,4 km/h (2 Bft) 95,65 %
18.08.2019 20:20 19,1 C 17,8 C 16,7 C 86 % 1014,7 hPa 0,0 l/m 0 min 0 min 31 W/m 9,7 km/h (2 Bft) 95,74 %
18.08.2019 20:22 19,1 C 18,3 C 16,7 C 86 % 1014,6 hPa 0,0 l/m 0 min 0 min 28 W/m 12,9 km/h (3 Bft) 95,74 %
18.08.2019 20:24 19,1 C 18,3 C 16,7 C 86 % 1014,8 hPa 0,0 l/m 0 min 0 min 26 W/m 9,7 km/h (2 Bft) 95,74 %
18.08.2019 20:26 19,1 C 17,8 C 16,7 C 86 % 1014,9 hPa 0,0 l/m 2 min 0 min 25 W/m 6,4 km/h (2 Bft) 95,74 %
18.08.2019 20:28 19,0 C 17,8 C 16,7 C 86 % 1014,9 hPa 0,0 l/m 2 min 0 min 24 W/m 6,4 km/h (2 Bft) 95,65 %
18.08.2019 20:30 19,0 C 17,8 C 16,7 C 86 % 1014,9 hPa 0,0 l/m 2 min 0 min 20 W/m 9,7 km/h (2 Bft) 95,74 %
18.08.2019 20:32 19,0 C 17,8 C 16,7 C 86 % 1014,9 hPa 0,0 l/m 0 min 0 min 18 W/m 12,9 km/h (3 Bft) 95,74 %
18.08.2019 20:34 18,9 C 17,8 C 16,7 C 86 % 1014,9 hPa 0,0 l/m 0 min 0 min 17 W/m 9,7 km/h (2 Bft) 93,62 %
18.08.2019 20:36 18,9 C 17,8 C 16,7 C 86 % 1014,8 hPa 0,0 l/m 0 min 0 min 15 W/m 9,7 km/h (2 Bft) 95,74 %
18.08.2019 20:38 18,9 C 17,8 C 16,7 C 86 % 1014,9 hPa 0,0 l/m 0 min 0 min 14 W/m 9,7 km/h (2 Bft) 95,74 %
18.08.2019 20:40 18,9 C 17,8 C 16,7 C 86 % 1014,9 hPa 0,0 l/m 0 min 0 min 12 W/m 16,1 km/h (3 Bft) 95,65 %
18.08.2019 20:42 18,9 C 17,8 C 16,7 C 86 % 1014,8 hPa 0,0 l/m 0 min 0 min 10 W/m 9,7 km/h (2 Bft) 95,74 %
18.08.2019 20:44 18,8 C 17,8 C 16,7 C 86 % 1014,8 hPa 0,0 l/m 0 min 0 min 9 W/m 12,9 km/h (3 Bft) 97,87 %
18.08.2019 20:46 18,8 C 17,8 C 16,7 C 86 % 1014,8 hPa 0,0 l/m 0 min 0 min 7 W/m 9,7 km/h (2 Bft) 95,74 %
18.08.2019 20:48 18,8 C 17,8 C 16,7 C 86 % 1014,8 hPa 0,0 l/m 0 min 0 min 6 W/m 9,7 km/h (2 Bft) 97,87 %
18.08.2019 20:50 18,8 C 17,2 C 16,7 C 86 % 1014,8 hPa 0,0 l/m 0 min 0 min 5 W/m 9,7 km/h (2 Bft) 95,74 %
18.08.2019 20:52 18,7 C 17,2 C 16,7 C 86 % 1014,9 hPa 0,0 l/m 0 min 0 min 5 W/m 6,4 km/h (2 Bft) 95,65 %
18.08.2019 20:54 18,7 C 17,2 C 16,7 C 86 % 1014,8 hPa 0,0 l/m 0 min 0 min 3 W/m 9,7 km/h (2 Bft) 97,87 %
18.08.2019 20:56 18,7 C 17,2 C 16,7 C 87 % 1014,9 hPa 0,0 l/m 0 min 0 min 0 W/m 9,7 km/h (2 Bft) 100,00 %
18.08.2019 20:58 18,7 C 17,2 C 16,7 C 87 % 1014,9 hPa 0,0 l/m 0 min 0 min 0 W/m 9,7 km/h (2 Bft) 100,00 %
18.08.2019 21:00 18,7 C 17,2 C 16,7 C 87 % 1015,0 hPa 0,0 l/m 0 min 0 min 0 W/m 9,7 km/h (2 Bft) 100,00 %
18.08.2019 21:02 18,6 C 17,2 C 16,7 C 87 % 1014,9 hPa 0,0 l/m 0 min 0 min 0 W/m 16,1 km/h (3 Bft) 97,87 %
18.08.2019 21:04 18,6 C 17,2 C 16,7 C 87 % 1014,9 hPa 0,0 l/m 0 min 0 min 0 W/m 16,1 km/h (3 Bft) 100,00 %
18.08.2019 21:06 18,6 C 17,2 C 16,7 C 87 % 1014,9 hPa 0,0 l/m 0 min 0 min 0 W/m 12,9 km/h (3 Bft) 100,00 %
18.08.2019 21:08 18,5 C 17,2 C 16,1 C 87 % 1014,9 hPa 0,0 l/m 0 min 0 min 0 W/m 6,4 km/h (2 Bft) 100,00 %
18.08.2019 21:10 18,5 C 17,2 C 16,1 C 87 % 1014,9 hPa 0,0 l/m 0 min 0 min 0 W/m 9,7 km/h (2 Bft) 100,00 %
18.08.2019 21:12 18,4 C 17,2 C 16,1 C 87 % 1014,9 hPa 0,0 l/m 0 min 0 min 0 W/m 6,4 km/h (2 Bft) 100,00 %
18.08.2019 21:14 18,4 C 17,2 C 16,1 C 87 % 1014,9 hPa 0,0 l/m 0 min 0 min 0 W/m 9,7 km/h (2 Bft) 97,87 %
18.08.2019 21:16 18,4 C 16,7 C 16,1 C 87 % 1014,9 hPa 0,0 l/m 0 min 0 min 0 W/m 6,4 km/h (2 Bft) 100,00 %
18.08.2019 21:18 18,4 C 16,7 C 16,1 C 87 % 1015,0 hPa 0,0 l/m 0 min 0 min 0 W/m 6,4 km/h (2 Bft) 100,00 %
18.08.2019 21:20 18,3 C 16,7 C 16,1 C 88 % 1015,1 hPa 0,0 l/m 0 min 0 min 0 W/m 9,7 km/h (2 Bft) 97,14 %
18.08.2019 21:22 18,3 C 16,7 C 15,6 C 88 % 1015,0 hPa 0,0 l/m 0 min 0 min 0 W/m 6,4 km/h (2 Bft) 100,00 %
18.08.2019 21:24 18,3 C 16,7 C 16,1 C 88 % 1015,1 hPa 0,0 l/m 0 min 0 min 0 W/m 9,7 km/h (2 Bft) 100,00 %
18.08.2019 21:26 18,3 C 16,7 C 16,1 C 88 % 1015,1 hPa 0,0 l/m 0 min 0 min 0 W/m 12,9 km/h (3 Bft) 100,00 %
18.08.2019 21:28 18,2 C 16,7 C 16,1 C 88 % 1015,2 hPa 0,0 l/m 0 min 0 min 0 W/m 9,7 km/h (2 Bft) 100,00 %
18.08.2019 21:30 18,2 C 16,7 C 16,1 C 88 % 1015,2 hPa 0,0 l/m 0 min 0 min 0 W/m 9,7 km/h (2 Bft) 100,00 %
18.08.2019 21:32 18,2 C 16,7 C 16,1 C 88 % 1015,2 hPa 0,0 l/m 0 min 0 min 0 W/m 9,7 km/h (2 Bft) 100,00 %
18.08.2019 21:34 18,1 C 16,7 C 16,1 C 88 % 1015,3 hPa 0,0 l/m 0 min 0 min 0 W/m 9,7 km/h (2 Bft) 100,00 %
18.08.2019 21:36 18,1 C 16,7 C 16,1 C 88 % 1015,3 hPa 0,0 l/m 0 min 0 min 0 W/m 9,7 km/h (2 Bft) 100,00 %
18.08.2019 21:38 18,1 C 16,7 C 16,1 C 88 % 1015,3 hPa 0,0 l/m 0 min 0 min 0 W/m 9,7 km/h (2 Bft) 100,00 %
18.08.2019 21:40 18,0 C 16,7 C 16,1 C 88 % 1015,3 hPa 0,0 l/m 0 min 0 min 0 W/m 9,7 km/h (2 Bft) 100,00 %
18.08.2019 21:42 18,0 C 16,7 C 16,1 C 89 % 1015,4 hPa 0,0 l/m 0 min 0 min 0 W/m 9,7 km/h (2 Bft) 97,87 %
18.08.2019 21:44 17,9 C 16,7 C 16,1 C 89 % 1015,4 hPa 0,0 l/m 0 min 0 min 0 W/m 9,7 km/h (2 Bft) 97,87 %
18.08.2019 21:46 17,9 C 16,7 C 16,1 C 89 % 1015,4 hPa 0,0 l/m 0 min 0 min 0 W/m 9,7 km/h (2 Bft) 100,00 %
18.08.2019 21:48 17,9 C 16,7 C 16,1 C 89 % 1015,3 hPa 0,0 l/m 0 min 0 min 0 W/m 6,4 km/h (2 Bft) 97,87 %
18.08.2019 21:50 17,9 C 16,7 C 16,1 C 89 % 1015,3 hPa 0,0 l/m 0 min 0 min 0 W/m 9,7 km/h (2 Bft) 100,00 %
18.08.2019 21:52 17,8 C 16,7 C 16,1 C 89 % 1015,3 hPa 0,0 l/m 0 min 0 min 0 W/m 6,4 km/h (2 Bft) 100,00 %
18.08.2019 21:54 17,8 C 16,7 C 16,1 C 89 % 1015,3 hPa 0,0 l/m 0 min 0 min 0 W/m 9,7 km/h (2 Bft) 97,87 %
18.08.2019 21:56 17,8 C 16,7 C 16,1 C 89 % 1015,2 hPa 0,0 l/m 0 min 0 min 0 W/m 9,7 km/h (2 Bft) 97,87 %
18.08.2019 21:58 17,8 C 16,7 C 16,1 C 89 % 1015,2 hPa 0,0 l/m 0 min 0 min 0 W/m 9,7 km/h (2 Bft) 100,00 %
18.08.2019 22:00 17,7 C 16,7 C 16,1 C 89 % 1015,3 hPa 0,0 l/m 0 min 0 min 0 W/m 9,7 km/h (2 Bft) 100,00 %
18.08.2019 22:02 17,7 C 16,7 C 16,1 C 89 % 1015,3 hPa 0,0 l/m 0 min 0 min 0 W/m 12,9 km/h (3 Bft) 100,00 %
18.08.2019 22:04 17,7 C 16,1 C 16,1 C 90 % 1015,4 hPa 0,0 l/m 0 min 0 min 0 W/m 9,7 km/h (2 Bft) 97,87 %
18.08.2019 22:06 17,7 C 16,1 C 15,6 C 90 % 1015,4 hPa 0,0 l/m 0 min 0 min 0 W/m 6,4 km/h (2 Bft) 97,87 %
18.08.2019 22:08 17,6 C 16,1 C 15,6 C 90 % 1015,3 hPa 0,0 l/m 0 min 0 min 0 W/m 16,1 km/h (3 Bft) 97,87 %
18.08.2019 22:10 17,6 C 16,1 C 15,6 C 90 % 1015,2 hPa 0,0 l/m 0 min 0 min 0 W/m 12,9 km/h (3 Bft) 97,87 %
18.08.2019 22:12 17,6 C 16,1 C 15,6 C 90 % 1015,2 hPa 0,0 l/m 0 min 0 min 0 W/m 16,1 km/h (3 Bft) 97,87 %
18.08.2019 22:14 17,6 C 16,1 C 15,6 C 90 % 1015,2 hPa 0,0 l/m 0 min 0 min 0 W/m 12,9 km/h (3 Bft) 97,83 %
18.08.2019 22:16 17,5 C 16,1 C 15,6 C 90 % 1015,2 hPa 0,0 l/m 0 min 0 min 0 W/m 12,9 km/h (3 Bft) 95,74 %
18.08.2019 22:18 17,5 C 16,1 C 15,6 C 90 % 1015,2 hPa 0,0 l/m 0 min 0 min 0 W/m 9,7 km/h (2 Bft) 97,87 %
18.08.2019 22:20 17,4 C 16,1 C 15,6 C 90 % 1015,3 hPa 0,0 l/m 0 min 0 min 0 W/m 9,7 km/h (2 Bft) 97,87 %
18.08.2019 22:22 17,4 C 16,1 C 15,6 C 90 % 1015,3 hPa 0,0 l/m 0 min 0 min 0 W/m 9,7 km/h (2 Bft) 95,74 %
18.08.2019 22:24 17,4 C 16,1 C 15,6 C 90 % 1015,3 hPa 0,0 l/m 0 min 0 min 0 W/m 9,7 km/h (2 Bft) 97,87 %
18.08.2019 22:26 17,4 C 16,1 C 15,6 C 91 % 1015,3 hPa 0,0 l/m 0 min 0 min 0 W/m 9,7 km/h (2 Bft) 97,83 %
18.08.2019 22:28 17,4 C 16,1 C 15,6 C 91 % 1015,3 hPa 0,0 l/m 0 min 0 min 0 W/m 9,7 km/h (2 Bft) 97,87 %
18.08.2019 22:30 17,3 C 16,1 C 15,6 C 91 % 1015,4 hPa 0,0 l/m 0 min 0 min 0 W/m 6,4 km/h (2 Bft) 97,87 %
18.08.2019 22:32 17,3 C 16,1 C 15,6 C 91 % 1015,4 hPa 0,0 l/m 0 min 0 min 0 W/m 9,7 km/h (2 Bft) 97,87 %
18.08.2019 22:34 17,3 C 16,1 C 15,6 C 91 % 1015,4 hPa 0,0 l/m 0 min 0 min 0 W/m 9,7 km/h (2 Bft) 97,87 %
18.08.2019 22:36 17,3 C 16,1 C 15,6 C 91 % 1015,4 hPa 0,0 l/m 0 min 0 min 0 W/m 12,9 km/h (3 Bft) 97,83 %
18.08.2019 22:38 17,2 C 16,1 C 15,6 C 91 % 1015,5 hPa 0,0 l/m 0 min 0 min 0 W/m 12,9 km/h (3 Bft) 97,87 %
18.08.2019 22:40 17,2 C 16,1 C 15,6 C 91 % 1015,5 hPa 0,0 l/m 0 min 0 min 0 W/m 6,4 km/h (2 Bft) 97,87 %
18.08.2019 22:42 17,2 C 16,1 C 15,6 C 91 % 1015,4 hPa 0,0 l/m 0 min 0 min 0 W/m 9,7 km/h (2 Bft) 95,74 %
18.08.2019 22:44 17,2 C 16,1 C 15,6 C 92 % 1015,4 hPa 0,0 l/m 0 min 0 min 0 W/m 9,7 km/h (2 Bft) 97,87 %
18.08.2019 22:46 17,2 C 16,1 C 15,6 C 92 % 1015,5 hPa 0,0 l/m 0 min 0 min 0 W/m 9,7 km/h (2 Bft) 95,74 %
18.08.2019 22:48 17,1 C 16,1 C 15,6 C 91 % 1015,5 hPa 0,0 l/m 0 min 0 min 0 W/m 9,7 km/h (2 Bft) 97,83 %
18.08.2019 22:50 17,1 C 16,1 C 15,6 C 92 % 1015,5 hPa 0,0 l/m 0 min 0 min 0 W/m 16,1 km/h (3 Bft) 97,87 %
18.08.2019 22:52 17,1 C 16,1 C 15,6 C 92 % 1015,5 hPa 0,0 l/m 0 min 0 min 0 W/m 9,7 km/h (2 Bft) 95,74 %
18.08.2019 22:54 17,1 C 16,1 C 15,6 C 92 % 1015,6 hPa 0,0 l/m 0 min 0 min 0 W/m 9,7 km/h (2 Bft) 95,74 %
18.08.2019 22:56 17,1 C 16,1 C 15,6 C 92 % 1015,6 hPa 0,0 l/m 0 min 0 min 0 W/m 6,4 km/h (2 Bft) 95,74 %
18.08.2019 22:58 17,1 C 16,1 C 15,6 C 92 % 1015,7 hPa 0,0 l/m 0 min 0 min 0 W/m 6,4 km/h (2 Bft) 95,74 %
18.08.2019 23:00 17,1 C 16,1 C 15,6 C 92 % 1015,7 hPa 0,0 l/m 0 min 0 min 0 W/m 9,7 km/h (2 Bft) 97,83 %
18.08.2019 23:02 17,0 C 16,1 C 15,6 C 92 % 1015,7 hPa 0,0 l/m 0 min 0 min 0 W/m 9,7 km/h (2 Bft) 95,74 %
18.08.2019 23:04 17,0 C 16,1 C 15,6 C 92 % 1015,8 hPa 0,0 l/m 0 min 0 min 0 W/m 16,1 km/h (3 Bft) 95,74 %
18.08.2019 23:06 17,0 C 16,1 C 15,6 C 92 % 1015,8 hPa 0,0 l/m 0 min 0 min 0 W/m 6,4 km/h (2 Bft) 95,74 %
18.08.2019 23:08 17,0 C 16,1 C 15,6 C 92 % 1015,7 hPa 0,0 l/m 0 min 0 min 0 W/m 12,9 km/h (3 Bft) 95,74 %
18.08.2019 23:10 17,0 C 16,1 C 15,6 C 92 % 1015,7 hPa 0,0 l/m 0 min 0 min 0 W/m 6,4 km/h (2 Bft) 95,74 %
18.08.2019 23:12 17,0 C 16,1 C 15,6 C 92 % 1015,8 hPa 0,0 l/m 0 min 0 min 0 W/m 12,9 km/h (3 Bft) 97,83 %
18.08.2019 23:14 16,9 C 16,1 C 15,6 C 92 % 1015,9 hPa 0,0 l/m 0 min 0 min 0 W/m 6,4 km/h (2 Bft) 95,74 %
18.08.2019 23:16 16,9 C 16,1 C 15,6 C 92 % 1015,9 hPa 0,0 l/m 0 min 0 min 0 W/m 6,4 km/h (2 Bft) 95,74 %
18.08.2019 23:18 16,9 C 16,1 C 15,6 C 92 % 1015,9 hPa 0,0 l/m 0 min 0 min 0 W/m 3,2 km/h (1 Bft) 97,87 %
18.08.2019 23:20 16,9 C 16,1 C 15,6 C 92 % 1016,0 hPa 0,0 l/m 0 min 0 min 0 W/m 9,7 km/h (2 Bft) 95,74 %
18.08.2019 23:22 16,9 C 16,1 C 15,6 C 92 % 1016,0 hPa 0,0 l/m 0 min 0 min 0 W/m 9,7 km/h (2 Bft) 95,74 %
18.08.2019 23:24 16,9 C 16,1 C 15,6 C 92 % 1016,0 hPa 0,0 l/m 0 min 0 min 0 W/m 9,7 km/h (2 Bft) 95,65 %
18.08.2019 23:26 16,9 C 16,1 C 15,6 C 92 % 1015,9 hPa 0,0 l/m 0 min 0 min 0 W/m 6,4 km/h (2 Bft) 93,62 %
18.08.2019 23:28 16,9 C 16,1 C 15,6 C 91 % 1016,0 hPa 0,0 l/m 0 min 0 min 0 W/m 6,4 km/h (2 Bft) 95,74 %
18.08.2019 23:30 16,9 C 16,1 C 15,6 C 91 % 1016,1 hPa 0,0 l/m 0 min 0 min 0 W/m 6,4 km/h (2 Bft) 95,74 %
18.08.2019 23:32 16,8 C 16,1 C 15,6 C 91 % 1016,1 hPa 0,0 l/m 0 min 0 min 0 W/m 9,7 km/h (2 Bft) 97,87 %
18.08.2019 23:34 16,8 C 16,1 C 15,6 C 91 % 1016,0 hPa 0,0 l/m 0 min 0 min 0 W/m 16,1 km/h (3 Bft) 95,74 %
18.08.2019 23:36 16,8 C 16,1 C 15,6 C 91 % 1015,9 hPa 0,0 l/m 0 min 0 min 0 W/m 6,4 km/h (2 Bft) 93,48 %
18.08.2019 23:38 16,8 C 16,1 C 15,6 C 90 % 1015,9 hPa 0,0 l/m 0 min 0 min 0 W/m 6,4 km/h (2 Bft) 97,87 %
18.08.2019 23:40 16,7 C 16,1 C 15,0 C 90 % 1015,9 hPa 0,0 l/m 0 min 0 min 0 W/m 9,7 km/h (2 Bft) 97,87 %
18.08.2019 23:42 16,7 C 15,6 C 15,0 C 90 % 1015,9 hPa 0,0 l/m 0 min 0 min 0 W/m 6,4 km/h (2 Bft) 95,74 %
18.08.2019 23:44 16,7 C 15,6 C 15,0 C 90 % 1016,0 hPa 0,0 l/m 0 min 0 min 0 W/m 9,7 km/h (2 Bft) 97,87 %
18.08.2019 23:46 16,7 C 15,6 C 15,0 C 90 % 1016,2 hPa 0,0 l/m 0 min 0 min 0 W/m 6,4 km/h (2 Bft) 97,87 %
18.08.2019 23:48 16,7 C 15,6 C 15,0 C 90 % 1016,1 hPa 0,0 l/m 0 min 0 min 0 W/m 9,7 km/h (2 Bft) 97,83 %
18.08.2019 23:50 16,7 C 15,6 C 15,0 C 90 % 1016,1 hPa 0,0 l/m 0 min 0 min 0 W/m 3,2 km/h (1 Bft) 95,74 %
18.08.2019 23:52 16,7 C 15,6 C 14,4 C 90 % 1016,1 hPa 0,0 l/m 0 min 0 min 0 W/m 3,2 km/h (1 Bft) 97,87 %
18.08.2019 23:54 16,7 C 15,0 C 14,4 C 90 % 1016,2 hPa 0,0 l/m 0 min 0 min 0 W/m 3,2 km/h (1 Bft) 97,87 %
18.08.2019 23:56 16,7 C 15,0 C 14,4 C 90 % 1016,2 hPa 0,0 l/m 0 min 0 min 0 W/m 6,4 km/h (2 Bft) 97,87 %
18.08.2019 23:58 16,6 C 15,0 C 14,4 C 90 % 1016,3 hPa 0,0 l/m 0 min 0 min 0 W/m 3,2 km/h (1 Bft) 97,83 %
_ Min-Zeit 07:06 04:34 05:22 19:52 11:12 - - - - 02:06 04:36
Minimum _ 14,2 C 13,3 C 12,8 C 85 % 1009,4 hPa - - - - 0,0 km/h (0 Bft) 91,30 %
_ Max-Zeit 00:00 17:40 16:34 10:40 23:58 02:44 18:08 00:08 14:08 10:20 00:26
Maximum _ 19,9 C 21,1 C 18,3 C 99 % 1016,3 hPa 0,4 l/m 4 min 4 min 480 W/m 25,7 km/h
O-SO (4 Bft)
100,00 %
Durchschnitt _ 17,0 C 16,2 C 15,5 C 94 % 1013,1 hPa #15,2 l/m #1:24 h #11:22 h 119 W/m 7,2 km/h (2 Bft) 97,49 %
© 2019 W. Hausmann